SondeTracker

Meteorological Radiosondes Database

Operations

Sounding was ended - last measurement: 2022-12-07 01:24:35z

MAP
About Radiosonde

Number: U3035079

Launch Site: Topeka [KS] (US)

Type: RS41

AUX: NO

Frequency: 404.001 MHz

Max Speed: 259 km/h at 11766 m

Average Speed: 134.89 km/h

Max Altitude: 32648 m

Average Ascent Speed: 5.99 m/s

Average Descent Speed: 11.77 m/s

Status: UNKNOWN

Status Changes
Launch Site Type AUX Frequency Status Finder Landing Point Description Changes made by
APRS Statistics

Received Frames: 571

First Frame [UTC]: 2022-12-06 23:15:49z

Last Frame [UTC]: 2022-12-07 01:24:35z

Receivers: KC0BQB, KD0ZJV-10, N0GRP-1

Flight Time: 02:08:46 h

Distance From First Measurement: 273.00 km

Nearest City: Moberly [MO] (US) [6.70 km]

Nearest Hunter: [0.00 km]

Ground Altitude: 225 m

Distance from QTH: 0.00 km

APRS Data
Receiver Number Date/Time [UTC] φ λ Course [°] Speed [km/h] Altitude [m] Description
N0GRP-1U30350792022-12-07 01:24:3539.4558-92.498282573282Clb=-6.4m/s t=-0.6C h=18.2% p=-1.0hPa 404.001 MHz Type=RS41-NG Radiosonde
N0GRP-1U30350792022-12-07 01:24:0439.4548-92.505775613531Clb=-6.5m/s t=-2.3C h=17.8% p=-1.0hPa 404.001 MHz Type=RS41-NG Radiosonde
N0GRP-1U30350792022-12-07 01:23:3339.454-92.510177693662Clb=-6.1m/s t=-3.2C h=27.7% p=-1.0hPa 404.001 MHz Type=RS41-NG Radiosonde
N0GRP-1U30350792022-12-07 01:23:0239.4529-92.518178743886Clb=-6.5m/s t=-5.2C h=31.1% p=-1.0hPa 404.001 MHz Type=RS41-NG Radiosonde
N0GRP-1U30350792022-12-07 01:22:3139.4519-92.525780814090Clb=-6.9m/s t=-7.0C h=30.7% p=-1.0hPa 404.001 MHz Type=RS41-NG Radiosonde
N0GRP-1U30350792022-12-07 01:22:0039.4507-92.533777814271Clb=-6.2m/s t=-8.2C h=27.1% p=-1.0hPa 404.001 MHz Type=RS41-NG Radiosonde
N0GRP-1U30350792022-12-07 01:21:2839.4485-92.544673894521Clb=-6.9m/s t=-9.0C h=18.3% p=-1.0hPa 404.001 MHz Type=RS41-NG Radiosonde
N0GRP-1U30350792022-12-07 01:20:5739.4473-92.550276934650Clb=-6.9m/s t=-9.7C h=12.9% p=-1.0hPa 404.001 MHz Type=RS41-NG Radiosonde
N0GRP-1U30350792022-12-07 01:20:2639.4457-92.559378934842Clb=-6.2m/s t=-10.9C h=25.3% p=-1.0hPa 404.001 MHz Type=RS41-NG Radiosonde
N0GRP-1U30350792022-12-07 01:19:5539.4442-92.5697791025044Clb=-6.2m/s t=-12.2C h=26.6% p=-1.0hPa 404.001 MHz Type=RS41-NG Radiosonde
N0GRP-1U30350792022-12-07 01:19:2439.4426-92.581791075261Clb=-6.7m/s t=-13.8C h=23.5% p=-1.0hPa 404.001 MHz Type=RS41-NG Radiosonde
N0GRP-1U30350792022-12-07 01:18:5339.4408-92.5938771175495Clb=-6.3m/s t=-15.6C h=37.0% p=-1.0hPa 404.001 MHz Type=RS41-NG Radiosonde
KD0ZJV-10U30350792022-12-07 01:18:2839.4396-92.6004751205609Clb=-6.7m/s t=-16.6C h=48.5% p=-1.0hPa 404.001 MHz Type=RS41-NG Radiosonde
N0GRP-1U30350792022-12-07 01:18:2239.4394-92.6016751205629Clb=-7.3m/s t=-16.7C h=50.0% p=-1.0hPa 404.001 MHz Type=RS41-NG Radiosonde
KD0ZJV-10U30350792022-12-07 01:17:5739.4373-92.611741205795Clb=-7.4m/s t=-18.1C h=59.3% p=-1.0hPa 404.001 MHz Type=RS41-NG Radiosonde
N0GRP-1U30350792022-12-07 01:17:5139.4368-92.6133731225836Clb=-7.0m/s t=-18.5C h=62.8% p=-1.0hPa 404.001 MHz Type=RS41-NG Radiosonde
KD0ZJV-10U30350792022-12-07 01:17:2639.4345-92.6233721206028Clb=-7.6m/s t=-20.1C h=61.6% p=-1.0hPa 404.001 MHz Type=RS41-NG Radiosonde
N0GRP-1U30350792022-12-07 01:17:2039.434-92.6252711196065Clb=-6.9m/s t=-20.4C h=59.3% p=-1.0hPa 404.001 MHz Type=RS41-NG Radiosonde
KD0ZJV-10U30350792022-12-07 01:16:5539.4315-92.6344711226233Clb=-6.8m/s t=-22.1C h=79.3% p=-1.0hPa 404.001 MHz Type=RS41-NG Radiosonde
N0GRP-1U30350792022-12-07 01:16:4939.4311-92.6363731226268Clb=-7.2m/s t=-22.3C h=78.3% p=-1.0hPa 404.001 MHz Type=RS41-NG Radiosonde
KD0ZJV-10U30350792022-12-07 01:16:2439.4289-92.6462731286447Clb=-7.5m/s t=-23.7C h=87.2% p=-1.0hPa 404.001 MHz Type=RS41-NG Radiosonde
N0GRP-1U30350792022-12-07 01:16:1839.4282-92.649731306497Clb=-7.1m/s t=-24.1C h=89.8% p=-1.0hPa 404.001 MHz Type=RS41-NG Radiosonde
KD0ZJV-10U30350792022-12-07 01:15:5439.4254-92.6591691306680Clb=-7.3m/s t=-24.5C h=72.9% p=-1.0hPa 404.001 MHz Type=RS41-NG Radiosonde
N0GRP-1U30350792022-12-07 01:15:4939.4249-92.6611701306716Clb=-7.3m/s t=-24.7C h=73.2% p=-1.0hPa 404.001 MHz Type=RS41-NG Radiosonde
KD0ZJV-10U30350792022-12-07 01:15:2839.4221-92.6706701336884Clb=-7.2m/s t=-25.9C h=74.2% p=-1.0hPa 404.001 MHz Type=RS41-NG Radiosonde
N0GRP-1U30350792022-12-07 01:15:2439.4213-92.6739721356942Clb=-6.8m/s t=-26.1C h=76.7% p=-1.0hPa 404.001 MHz Type=RS41-NG Radiosonde
KD0ZJV-10U30350792022-12-07 01:15:0339.4184-92.6863741397148Clb=-7.5m/s t=-27.4C h=57.7% p=-1.0hPa 404.001 MHz Type=RS41-NG Radiosonde
N0GRP-1U30350792022-12-07 01:14:5739.4183-92.6867751397155Clb=-7.7m/s t=-27.4C h=57.7% p=-1.0hPa 404.001 MHz Type=RS41-NG Radiosonde
KD0ZJV-10U30350792022-12-07 01:14:3739.4159-92.6979741437340Clb=-7.6m/s t=-29.0C h=61.6% p=-1.0hPa 404.000 MHz Type=RS41-NG Radiosonde
N0GRP-1U30350792022-12-07 01:14:3239.4154-92.7006741437385Clb=-7.5m/s t=-29.3C h=63.1% p=-1.0hPa 404.001 MHz Type=RS41-NG Radiosonde
KD0ZJV-10U30350792022-12-07 01:14:1039.413-92.7119751487573Clb=-7.9m/s t=-30.9C h=70.4% p=-1.0hPa 404.000 MHz Type=RS41-NG Radiosonde
N0GRP-1U30350792022-12-07 01:14:0539.4124-92.7148751547619Clb=-7.8m/s t=-31.2C h=71.9% p=-1.0hPa 404.001 MHz Type=RS41-NG Radiosonde
KD0ZJV-10U30350792022-12-07 01:13:4139.41-92.7271761597804Clb=-7.9m/s t=-32.5C h=69.0% p=-1.0hPa 404.000 MHz Type=RS41-NG Radiosonde
N0GRP-1U30350792022-12-07 01:13:3639.4095-92.7301771597848Clb=-7.3m/s t=-32.9C h=68.0% p=-1.0hPa 404.000 MHz Type=RS41-NG Radiosonde
KD0ZJV-10U30350792022-12-07 01:13:1339.4074-92.7443791728042Clb=-7.8m/s t=-34.2C h=63.7% p=-1.0hPa 404.000 MHz Type=RS41-NG Radiosonde
N0GRP-1U30350792022-12-07 01:13:0739.4071-92.7465791768073Clb=-8.2m/s t=-34.3C h=64.5% p=-1.0hPa 404.000 MHz Type=RS41-NG Radiosonde
KD0ZJV-10U30350792022-12-07 01:12:4339.4051-92.7608801858262Clb=-6.8m/s t=-35.6C h=62.6% p=-1.0hPa 404.000 MHz Type=RS41-NG Radiosonde
N0GRP-1U30350792022-12-07 01:12:3739.4046-92.7644801918305Clb=-7.9m/s t=-35.8C h=63.4% p=-1.0hPa 404.000 MHz Type=RS41-NG Radiosonde
KD0ZJV-10U30350792022-12-07 01:12:1239.4024-92.7796791938500Clb=-7.4m/s t=-37.2C h=65.8% p=-1.0hPa 404.000 MHz Type=RS41-NG Radiosonde
KD0ZJV-10U30350792022-12-07 01:11:4139.3997-92.7988791968749Clb=-8.6m/s t=-39.5C h=79.2% p=-1.0hPa 404.000 MHz Type=RS41-NG Radiosonde
KD0ZJV-10U30350792022-12-07 01:11:1139.3966-92.8187762099005Clb=-8.2m/s t=-40.6C h=47.7% p=-1.0hPa 404.000 MHz Type=RS41-NG Radiosonde
KD0ZJV-10U30350792022-12-07 01:10:4139.3927-92.8398752249261Clb=-7.9m/s t=-42.2C h=65.2% p=-1.0hPa 404.000 MHz Type=RS41-NG Radiosonde
N0GRP-1U30350792022-12-07 01:10:3539.391-92.8483742269359Clb=-8.0m/s t=-42.8C h=68.7% p=-1.0hPa 404.000 MHz Type=RS41-NG Radiosonde
KC0BQBU30350792022-12-07 01:10:2939.3892-92.8568732289456Clb=-8.1m/s t=-43.6C h=66.8% p=-1.0hPa 404.000 MHz Type=RS41-NG ser=U3035079 Radiosonde auto_rx v1.5.5
KD0ZJV-10U30350792022-12-07 01:10:1039.3879-92.8624742289523Clb=-8.3m/s t=-44.3C h=61.4% p=-1.0hPa 404.000 MHz Type=RS41-NG Radiosonde
KC0BQBU30350792022-12-07 01:09:5939.3864-92.8695742249609Clb=-9.1m/s t=-44.9C h=31.4% p=-1.0hPa 404.000 MHz Type=RS41-NG ser=U3035079 Radiosonde auto_rx v1.5.5
KD0ZJV-10U30350792022-12-07 01:09:3739.3835-92.8834742229786Clb=-8.2m/s t=-45.1C h=11.3% p=-1.0hPa 404.000 MHz Type=RS41-NG Radiosonde
N0GRP-1U30350792022-12-07 01:09:3139.3797-92.90137522810027Clb=-9.0m/s t=-47.0C h=12.0% p=-1.0hPa 404.000 MHz Type=RS41-NG Radiosonde
KD0ZJV-10U30350792022-12-07 01:09:0439.3789-92.90497523010073Clb=-9.2m/s t=-47.2C h=12.6% p=-1.0hPa 404.000 MHz Type=RS41-NG Radiosonde
N0GRP-1U30350792022-12-07 01:08:5739.3778-92.91067522810145Clb=-8.9m/s t=-47.8C h=13.3% p=-1.0hPa 404.000 MHz Type=RS41-NG Radiosonde
KD0ZJV-10U30350792022-12-07 01:08:3239.3748-92.92737623310353Clb=-9.1m/s t=-49.4C h=14.7% p=-1.0hPa 404.000 MHz Type=RS41-NG Radiosonde
N0GRP-1U30350792022-12-07 01:08:2539.3738-92.93257523710419Clb=-9.4m/s t=-49.8C h=15.5% p=-1.0hPa 404.000 MHz Type=RS41-NG Radiosonde
KC0BQBU30350792022-12-07 01:08:2439.3711-92.94687724310600Clb=-9.8m/s t=-51.3C h=21.9% p=-1.0hPa 404.000 MHz Type=RS41-NG ser=U3035079 Radiosonde auto_rx v1.5.5
KD0ZJV-10U30350792022-12-07 01:08:0139.3705-92.95077724410649Clb=-9.9m/s t=-51.7C h=24.4% p=-1.0hPa 404.000 MHz Type=RS41-NG Radiosonde
KC0BQBU30350792022-12-07 01:07:5439.3693-92.95767824310739Clb=-9.0m/s t=-52.4C h=27.4% p=-1.0hPa 404.000 MHz Type=RS41-NG ser=U3035079 Radiosonde auto_rx v1.5.5
N0GRP-1U30350792022-12-07 01:07:5239.3688-92.96077724110777Clb=-9.5m/s t=-52.7C h=26.9% p=-1.0hPa 404.000 MHz Type=RS41-NG Radiosonde
KD0ZJV-10U30350792022-12-07 01:07:2639.3662-92.97617724310958Clb=-8.8m/s t=-54.0C h=25.2% p=-1.0hPa 404.000 MHz Type=RS41-NG Radiosonde
KC0BQBU30350792022-12-07 01:07:2039.3656-92.97927824310992Clb=-8.7m/s t=-54.3C h=24.4% p=-1.0hPa 404.000 MHz Type=RS41-NG ser=U3035079 Radiosonde auto_rx v1.5.5
N0GRP-1U30350792022-12-07 01:07:1839.3655-92.987824311000Clb=-8.3m/s t=-54.3C h=24.2% p=-1.0hPa 404.000 MHz Type=RS41-NG Radiosonde
KD0ZJV-10U30350792022-12-07 01:06:5139.3625-92.99837824311202Clb=-8.8m/s t=-55.5C h=21.8% p=-1.0hPa 404.000 MHz Type=RS41-NG Radiosonde
KC0BQBU30350792022-12-07 01:06:4639.3619-93.00227724111246Clb=-8.4m/s t=-55.9C h=22.3% p=-1.0hPa 404.000 MHz Type=RS41-NG ser=U3035079 Radiosonde auto_rx v1.5.5
N0GRP-1U30350792022-12-07 01:06:4339.3616-93.00377824311263Clb=-8.8m/s t=-56.0C h=22.4% p=-1.0hPa 404.000 MHz Type=RS41-NG Radiosonde
KD0ZJV-10U30350792022-12-07 01:06:1739.359-93.0238024311480Clb=-8.6m/s t=-57.5C h=24.6% p=-1.0hPa 404.000 MHz Type=RS41-NG Radiosonde
KC0BQBU30350792022-12-07 01:06:1439.3587-93.02548024411506Clb=-8.6m/s t=-57.7C h=24.8% p=-1.0hPa 404.000 MHz Type=RS41-NG ser=U3035079 Radiosonde auto_rx v1.5.5
N0GRP-1U30350792022-12-07 01:06:0939.3584-93.02778024411533Clb=-9.1m/s t=-57.9C h=24.8% p=-1.0hPa 404.000 MHz Type=RS41-NG Radiosonde
KD0ZJV-10U30350792022-12-07 01:05:4239.3557-93.04627824311745Clb=-9.1m/s t=-59.7C h=24.4% p=-1.0hPa 404.000 MHz Type=RS41-NG Radiosonde
N0GRP-1U30350792022-12-07 01:05:3339.3548-93.05247924311816Clb=-8.8m/s t=-60.3C h=23.4% p=-1.0hPa 404.000 MHz Type=RS41-NG Radiosonde
KD0ZJV-10U30350792022-12-07 01:05:0839.3522-93.07178123512034Clb=-8.8m/s t=-61.2C h=16.8% p=-1.0hPa 404.000 MHz Type=RS41-NG Radiosonde
N0GRP-1U30350792022-12-07 01:04:5939.3518-93.07558023212078Clb=-9.2m/s t=-61.2C h=15.7% p=-1.0hPa 404.000 MHz Type=RS41-NG Radiosonde
KC0BQBU30350792022-12-07 01:04:3439.3491-93.09357823212306Clb=-9.0m/s t=-60.9C h=10.7% p=-1.0hPa 404.000 MHz Type=RS41-NG ser=U3035079 Radiosonde auto_rx v1.5.5
N0GRP-1U30350792022-12-07 01:04:2539.3484-93.0987723312361Clb=-9.3m/s t=-60.5C h=9.6% p=-1.0hPa 404.000 MHz Type=RS41-NG Radiosonde
KC0BQBU30350792022-12-07 01:04:0039.3456-93.11557923312585Clb=-9.2m/s t=-61.3C h=8.5% p=-1.0hPa 404.000 MHz Type=RS41-NG ser=U3035079 Radiosonde auto_rx v1.5.5
KD0ZJV-10U30350792022-12-07 01:03:5939.3454-93.11627923312594Clb=-9.2m/s t=-61.3C h=8.5% p=-1.0hPa 404.000 MHz Type=RS41-NG Radiosonde
N0GRP-1U30350792022-12-07 01:03:5239.3448-93.12077923512647Clb=-9.1m/s t=-61.5C h=8.5% p=-1.0hPa 404.000 MHz Type=RS41-NG Radiosonde
KC0BQBU30350792022-12-07 01:03:3039.3424-93.13737821912874Clb=-9.6m/s t=-61.2C h=6.9% p=-1.0hPa 404.000 MHz Type=RS41-NG ser=U3035079 Radiosonde auto_rx v1.5.5
KD0ZJV-10U30350792022-12-07 01:03:2839.3422-93.13877821712893Clb=-9.6m/s t=-61.3C h=6.9% p=-1.0hPa 404.000 MHz Type=RS41-NG Radiosonde
N0GRP-1U30350792022-12-07 01:03:2139.3395-93.15788121113166Clb=-10.3m/s t=-63.1C h=6.9% p=-1.0hPa 404.000 MHz Type=RS41-NG Radiosonde
KC0BQBU30350792022-12-07 01:03:0039.3395-93.15788121113166Clb=-10.3m/s t=-63.1C h=6.9% p=-1.0hPa 404.000 MHz Type=RS41-NG ser=U3035079 Radiosonde auto_rx v1.5.5
KD0ZJV-10U30350792022-12-07 01:02:5739.3392-93.15988020913195Clb=-9.4m/s t=-62.7C h=6.7% p=-1.0hPa 404.000 MHz Type=RS41-NG Radiosonde
N0GRP-1U30350792022-12-07 01:02:5039.3386-93.16387820613248Clb=-8.9m/s t=-62.8C h=6.6% p=-1.0hPa 404.000 MHz Type=RS41-NG Radiosonde
KC0BQBU30350792022-12-07 01:02:3039.3361-93.17727620213430Clb=-8.7m/s t=-63.1C h=6.2% p=-1.0hPa 404.000 MHz Type=RS41-NG ser=U3035079 Radiosonde auto_rx v1.5.5
KD0ZJV-10U30350792022-12-07 01:02:2539.3357-93.17977720413464Clb=-8.2m/s t=-63.1C h=6.1% p=-1.0hPa 404.000 MHz Type=RS41-NG Radiosonde
N0GRP-1U30350792022-12-07 01:02:1939.3349-93.18427620213520Clb=-8.0m/s t=-63.2C h=6.0% p=-1.0hPa 404.000 MHz Type=RS41-NG Radiosonde
KC0BQBU30350792022-12-07 01:02:0039.3327-93.19627720013694Clb=-10.4m/s t=-63.9C h=5.8% p=-1.0hPa 404.000 MHz Type=RS41-NG ser=U3035079 Radiosonde auto_rx v1.5.5
KD0ZJV-10U30350792022-12-07 01:01:5439.3321-93.19947620413745Clb=-9.9m/s t=-64.1C h=5.8% p=-1.0hPa 404.000 MHz Type=RS41-NG Radiosonde
N0GRP-1U30350792022-12-07 01:01:4839.3313-93.20387720213816Clb=-10.2m/s t=-64.3C h=5.9% p=-1.0hPa 404.000 MHz Type=RS41-NG Radiosonde
KD0ZJV-10U30350792022-12-07 01:01:2439.3284-93.21957621914078Clb=-10.9m/s t=-64.1C h=5.5% p=-1.0hPa 404.000 MHz Type=RS41-NG Radiosonde
N0GRP-1U30350792022-12-07 01:01:1739.3275-93.22437821714155Clb=-10.2m/s t=-64.1C h=5.2% p=-1.0hPa 404.000 MHz Type=RS41-NG Radiosonde
KC0BQBU30350792022-12-07 01:01:0139.3258-93.23578020714326Clb=-10.4m/s t=-64.5C h=5.1% p=-1.0hPa 404.000 MHz Type=RS41-NG ser=U3035079 Radiosonde auto_rx v1.5.5
KD0ZJV-10U30350792022-12-07 01:00:5439.3253-93.24028020014397Clb=-9.9m/s t=-64.9C h=5.1% p=-1.0hPa 404.000 MHz Type=RS41-NG Radiosonde
KC0BQBU30350792022-12-07 01:00:5339.3231-93.25527920714624Clb=-9.5m/s t=-65.1C h=4.9% p=-1.0hPa 404.000 MHz Type=RS41-NG ser=U3035079 Radiosonde auto_rx v1.5.5
KC0BQBU30350792022-12-07 01:00:5239.3203-93.2747819414921Clb=-10.0m/s t=-65.6C h=4.9% p=-1.0hPa 404.000 MHz Type=RS41-NG ser=U3035079 Radiosonde auto_rx v1.5.5
KD0ZJV-10U30350792022-12-07 01:00:5139.3195-93.27968019615014Clb=-10.5m/s t=-66.0C h=5.0% p=-1.0hPa 404.000 MHz Type=RS41-NG Radiosonde
KC0BQBU30350792022-12-07 01:00:5039.3181-93.29218317415235Clb=-10.6m/s t=-65.7C h=4.7% p=-1.0hPa 404.000 MHz Type=RS41-NG ser=U3035079 Radiosonde auto_rx v1.5.5
KC0BQBU30350792022-12-07 01:00:4939.3173-93.30918815715558Clb=-11.5m/s t=-65.6C h=4.5% p=-1.0hPa 404.000 MHz Type=RS41-NG ser=U3035079 Radiosonde auto_rx v1.5.5
KD0ZJV-10U30350792022-12-07 01:00:4839.317-93.31468415615679Clb=-11.6m/s t=-65.3C h=4.4% p=-1.0hPa 404.000 MHz Type=RS41-NG Radiosonde
KC0BQBU30350792022-12-07 01:00:4739.3162-93.32418615615893Clb=-11.7m/s t=-64.6C h=4.0% p=-1.0hPa 404.000 MHz Type=RS41-NG ser=U3035079 Radiosonde auto_rx v1.5.5
KD0ZJV-10U30350792022-12-07 01:00:4639.3159-93.33068615216058Clb=-12.4m/s t=-66.1C h=4.3% p=-1.0hPa 404.000 MHz Type=RS41-NG Radiosonde
KC0BQBU30350792022-12-07 01:00:4139.3154-93.33878614116274Clb=-12.4m/s t=-67.2C h=4.5% p=-1.0hPa 404.000 MHz Type=RS41-NG ser=U3035079 Radiosonde auto_rx v1.5.5
KD0ZJV-10U30350792022-12-07 01:00:3839.3149-93.34488012816433Clb=-11.3m/s t=-66.8C h=4.1% p=-1.0hPa 404.000 MHz Type=RS41-NG Radiosonde
N0GRP-1U30350792022-12-07 01:00:3639.3146-93.34738012616500Clb=-11.2m/s t=-67.2C h=4.2% p=-1.0hPa 404.000 MHz Type=RS41-NG Radiosonde
KC0BQBU30350792022-12-07 01:00:3439.314-93.35127711916611Clb=-11.2m/s t=-68.0C h=4.4% p=-1.0hPa 404.000 MHz Type=RS41-NG ser=U3035079 Radiosonde auto_rx v1.5.5
KD0ZJV-10U30350792022-12-07 01:00:3039.3129-93.35727913716766Clb=-10.6m/s t=-68.0C h=4.7% p=-1.0hPa 404.000 MHz Type=RS41-NG Radiosonde
N0GRP-1U30350792022-12-07 01:00:2839.3125-93.35987613716857Clb=-14.9m/s t=-67.2C h=4.2% p=-1.0hPa 404.000 MHz Type=RS41-NG Radiosonde
KC0BQBU30350792022-12-07 01:00:2539.3119-93.36378113016994Clb=-12.7m/s t=-66.3C h=3.9% p=-1.0hPa 404.000 MHz Type=RS41-NG ser=U3035079 Radiosonde auto_rx v1.5.5
KD0ZJV-10U30350792022-12-07 01:00:2139.3112-93.36998412017210Clb=-14.1m/s t=-66.1C h=3.9% p=-1.0hPa 404.000 MHz Type=RS41-NG Radiosonde
KC0BQBU30350792022-12-07 01:00:2039.311-93.3749879817398Clb=-13.2m/s t=-64.9C h=3.4% p=-1.0hPa 404.000 MHz Type=RS41-NG ser=U3035079 Radiosonde auto_rx v1.5.5
KC0BQBU30350792022-12-07 01:00:1939.3094-93.38387410017812Clb=-14.6m/s t=-67.1C h=3.9% p=-1.0hPa 404.000 MHz Type=RS41-NG ser=U3035079 Radiosonde auto_rx v1.5.5
N0GRP-1U30350792022-12-07 01:00:1839.3087-93.3914908118150Clb=-14.9m/s t=-64.6C h=3.1% p=-1.0hPa 404.000 MHz Type=RS41-NG Radiosonde
KC0BQBU30350792022-12-07 01:00:1639.3087-93.3926888018224Clb=-15.0m/s t=-64.3C h=2.9% p=-1.0hPa 404.000 MHz Type=RS41-NG ser=U3035079 Radiosonde auto_rx v1.5.5
KD0ZJV-10U30350792022-12-07 01:00:0139.309-93.398510010018515Clb=-14.2m/s t=-65.7C h=3.0% p=-1.0hPa 404.000 MHz Type=RS41-NG Radiosonde
N0GRP-1U30350792022-12-07 00:59:5339.3092-93.4989418585Clb=-14.6m/s t=-66.2C h=3.1% p=-1.0hPa 404.000 MHz Type=RS41-NG Radiosonde
KC0BQBU30350792022-12-07 00:59:4839.3094-93.4015979318650Clb=-14.8m/s t=-66.3C h=3.0% p=-1.0hPa 404.000 MHz Type=RS41-NG ser=U3035079 Radiosonde auto_rx v1.5.5
KD0ZJV-10U30350792022-12-07 00:59:2239.3096-93.4071838718941Clb=-15.2m/s t=-68.3C h=3.7% p=-1.0hPa 404.000 MHz Type=RS41-NG Radiosonde
N0GRP-1U30350792022-12-07 00:59:1439.3094-93.4089848719045Clb=-14.4m/s t=-66.8C h=3.4% p=-1.0hPa 404.000 MHz Type=RS41-NG Radiosonde
KC0BQBU30350792022-12-07 00:59:0939.3093-93.4097837819088Clb=-14.6m/s t=-66.5C h=3.3% p=-1.0hPa 404.000 MHz Type=RS41-NG ser=U3035079 Radiosonde auto_rx v1.5.5
KD0ZJV-10U30350792022-12-07 00:58:3939.3093-93.4144836519444Clb=-18.4m/s t=-65.0C h=2.6% p=-1.0hPa 404.000 MHz Type=RS41-NG Radiosonde
N0GRP-1U30350792022-12-07 00:58:3039.3091-93.4159826719546Clb=-13.0m/s t=-65.7C h=2.9% p=-1.0hPa 404.000 MHz Type=RS41-NG Radiosonde
KC0BQBU30350792022-12-07 00:58:2739.3091-93.4163807019571Clb=-12.2m/s t=-65.6C h=2.8% p=-1.0hPa 404.000 MHz Type=RS41-NG ser=U3035079 Radiosonde auto_rx v1.5.5
KD0ZJV-10U30350792022-12-07 00:57:5739.3083-93.4213846719860Clb=-15.8m/s t=-65.3C h=2.8% p=-1.0hPa 404.000 MHz Type=RS41-NG Radiosonde
N0GRP-1U30350792022-12-07 00:57:4939.3082-93.4228877019960Clb=-11.8m/s t=-64.9C h=2.5% p=-1.0hPa 404.000 MHz Type=RS41-NG Radiosonde
KC0BQBU30350792022-12-07 00:57:4839.3082-93.423907019972Clb=-13.5m/s t=-64.9C h=2.5% p=-1.0hPa 404.000 MHz Type=RS41-NG ser=U3035079 Radiosonde auto_rx v1.5.5
KD0ZJV-10U30350792022-12-07 00:57:1639.3084-93.4286927420261Clb=-15.5m/s t=-65.8C h=2.5% p=-1.0hPa 404.000 MHz Type=RS41-NG Radiosonde
KC0BQBU30350792022-12-07 00:57:0839.3085-93.4302956320369Clb=-14.8m/s t=-66.6C h=2.7% p=-1.0hPa 404.000 MHz Type=RS41-NG ser=U3035079 Radiosonde auto_rx v1.5.5
N0GRP-1U30350792022-12-07 00:57:0639.3085-93.4302956320369Clb=-14.8m/s t=-66.6C h=2.7% p=-1.0hPa 404.000 MHz Type=RS41-NG Radiosonde
KD0ZJV-10U30350792022-12-07 00:56:3439.3081-93.4357757020749Clb=-14.8m/s t=-66.4C h=2.6% p=-1.0hPa 404.000 MHz Type=RS41-NG Radiosonde
KC0BQBU30350792022-12-07 00:56:2839.3078-93.4371808320843Clb=-13.1m/s t=-66.6C h=2.6% p=-1.0hPa 404.000 MHz Type=RS41-NG ser=U3035079 Radiosonde auto_rx v1.5.5
N0GRP-1U30350792022-12-07 00:56:2539.3078-93.4374848120857Clb=-13.6m/s t=-66.7C h=2.6% p=-1.0hPa 404.000 MHz Type=RS41-NG Radiosonde
KD0ZJV-10U30350792022-12-07 00:55:5239.3075-93.4436907421240Clb=-17.4m/s t=-66.7C h=2.5% p=-1.0hPa 404.000 MHz Type=RS41-NG Radiosonde
KC0BQBU30350792022-12-07 00:55:4639.3074-93.4445875921310Clb=-17.6m/s t=-67.2C h=2.5% p=-1.0hPa 404.000 MHz Type=RS41-NG ser=U3035079 Radiosonde auto_rx v1.5.5
N0GRP-1U30350792022-12-07 00:55:4239.3074-93.4448915721346Clb=-19.1m/s t=-67.1C h=2.6% p=-1.0hPa 404.000 MHz Type=RS41-NG Radiosonde
KD0ZJV-10U30350792022-12-07 00:55:1039.3082-93.44971126521760Clb=-14.6m/s t=-65.6C h=2.3% p=-1.0hPa 404.000 MHz Type=RS41-NG Radiosonde
KC0BQBU30350792022-12-07 00:55:0639.3084-93.45041155721827Clb=-15.9m/s t=-65.3C h=2.2% p=-1.0hPa 404.000 MHz Type=RS41-NG ser=U3035079 Radiosonde auto_rx v1.5.5
N0GRP-1U30350792022-12-07 00:55:0039.3086-93.45091175621875Clb=-15.2m/s t=-64.9C h=2.1% p=-1.0hPa 404.000 MHz Type=RS41-NG Radiosonde
KD0ZJV-10U30350792022-12-07 00:54:2939.3096-93.4537903922298Clb=-17.2m/s t=-65.8C h=2.5% p=-1.0hPa 404.000 MHz Type=RS41-NG Radiosonde
KC0BQBU30350792022-12-07 00:54:2739.3096-93.4541824322349Clb=-17.2m/s t=-65.8C h=2.5% p=-1.0hPa 404.000 MHz Type=RS41-NG ser=U3035079 Radiosonde auto_rx v1.5.5
N0GRP-1U30350792022-12-07 00:54:1939.3095-93.4546893722424Clb=-18.8m/s t=-65.8C h=2.6% p=-1.0hPa 404.001 MHz Type=RS41-NG Radiosonde
KD0ZJV-10U30350792022-12-07 00:53:4539.3102-93.4586964322902Clb=-18.7m/s t=-61.0C h=1.8% p=-1.0hPa 404.000 MHz Type=RS41-NG Radiosonde
KC0BQBU30350792022-12-07 00:53:4339.3102-93.4589874322939Clb=-17.1m/s t=-60.7C h=1.7% p=-1.0hPa 404.000 MHz Type=RS41-NG ser=U3035079 Radiosonde auto_rx v1.5.5
N0GRP-1U30350792022-12-07 00:53:3539.3102-93.4597953523030Clb=-20.0m/s t=-60.3C h=1.7% p=-1.0hPa 404.001 MHz Type=RS41-NG Radiosonde
KD0ZJV-10U30350792022-12-07 00:53:0239.3097-93.4625814823496Clb=-19.5m/s t=-59.3C h=1.4% p=-1.0hPa 404.000 MHz Type=RS41-NG Radiosonde
N0GRP-1U30350792022-12-07 00:52:5139.3096-93.4634853923643Clb=-20.3m/s t=-60.4C h=1.6% p=-1.0hPa 404.001 MHz Type=RS41-NG Radiosonde
KC0BQBU30350792022-12-07 00:52:1539.3095-93.4663853324137Clb=-21.8m/s t=-60.6C h=1.6% p=-1.0hPa 404.000 MHz Type=RS41-NG ser=U3035079 Radiosonde auto_rx v1.5.5
KD0ZJV-10U30350792022-12-07 00:52:1339.3095-93.4664873124157Clb=-19.5m/s t=-60.4C h=1.6% p=-1.0hPa 404.001 MHz Type=RS41-NG Radiosonde
N0GRP-1U30350792022-12-07 00:52:0239.3094-93.4671714824278Clb=-20.9m/s t=-60.7C h=1.7% p=-1.0hPa 404.001 MHz Type=RS41-NG Radiosonde
KC0BQBU30350792022-12-07 00:51:3039.309-93.4714867424715Clb=-17.3m/s t=-59.2C h=1.6% p=-1.0hPa 404.000 MHz Type=RS41-NG ser=U3035079 Radiosonde auto_rx v1.5.5
KD0ZJV-10U30350792022-12-07 00:51:2839.309-93.4719968124749Clb=-18.5m/s t=-58.9C h=1.6% p=-1.0hPa 404.000 MHz Type=RS41-NG Radiosonde
N0GRP-1U30350792022-12-07 00:51:1739.3093-93.47331036324857Clb=-20.4m/s t=-57.5C h=1.4% p=-1.0hPa 404.001 MHz Type=RS41-NG Radiosonde
KC0BQBU30350792022-12-07 00:50:4539.3103-93.47761076125310Clb=-19.5m/s t=-58.2C h=1.4% p=-1.0hPa 404.000 MHz Type=RS41-NG ser=U3035079 Radiosonde auto_rx v1.5.5
KD0ZJV-10U30350792022-12-07 00:50:4039.3105-93.4782945425371Clb=-22.7m/s t=-58.0C h=1.4% p=-1.0hPa 404.000 MHz Type=RS41-NG Radiosonde
N0GRP-1U30350792022-12-07 00:50:2939.3105-93.4791965225510Clb=-18.2m/s t=-58.6C h=1.5% p=-1.0hPa 404.001 MHz Type=RS41-NG Radiosonde
KC0BQBU30350792022-12-07 00:50:0039.3106-93.4832898325924Clb=-22.0m/s t=-57.9C h=1.3% p=-1.0hPa 404.000 MHz Type=RS41-NG ser=U3035079 Radiosonde auto_rx v1.5.5
KD0ZJV-10U30350792022-12-07 00:49:5339.3106-93.4842957226014Clb=-21.4m/s t=-58.2C h=1.4% p=-1.0hPa 404.000 MHz Type=RS41-NG Radiosonde
N0GRP-1U30350792022-12-07 00:49:4439.3107-93.4858908126151Clb=-18.5m/s t=-58.2C h=1.5% p=-1.0hPa 404.001 MHz Type=RS41-NG Radiosonde
KC0BQBU30350792022-12-07 00:49:1839.3104-93.4898797826472Clb=-16.4m/s t=-56.7C h=1.3% p=-1.0hPa 404.000 MHz Type=RS41-NG ser=U3035079 Radiosonde auto_rx v1.5.5
KD0ZJV-10U30350792022-12-07 00:49:0839.3104-93.4909865026561Clb=-19.1m/s t=-57.2C h=1.4% p=-1.0hPa 404.000 MHz Type=RS41-NG Radiosonde
N0GRP-1U30350792022-12-07 00:48:5839.3104-93.49241008526683Clb=-18.4m/s t=-56.9C h=1.5% p=-1.0hPa 404.001 MHz Type=RS41-NG Radiosonde
KC0BQBU30350792022-12-07 00:48:3239.3103-93.4964909627005Clb=-24.1m/s t=-56.0C h=1.4% p=-1.0hPa 404.000 MHz Type=RS41-NG ser=U3035079 Radiosonde auto_rx v1.5.5
KD0ZJV-10U30350792022-12-07 00:48:2239.3102-93.4984879327145Clb=-23.5m/s t=-55.1C h=1.2% p=-1.0hPa 404.000 MHz Type=RS41-NG Radiosonde
N0GRP-1U30350792022-12-07 00:48:1339.3101-93.5005859127300Clb=-22.0m/s t=-54.2C h=1.1% p=-1.0hPa 404.001 MHz Type=RS41-NG Radiosonde
KC0BQBU30350792022-12-07 00:47:4939.3098-93.5049824127705Clb=-28.7m/s t=-55.2C h=1.2% p=-1.0hPa 404.000 MHz Type=RS41-NG ser=U3035079 Radiosonde auto_rx v1.5.5
KD0ZJV-10U30350792022-12-07 00:47:3539.3098-93.5059857827833Clb=-16.4m/s t=-55.0C h=1.2% p=-1.0hPa 404.000 MHz Type=RS41-NG Radiosonde
N0GRP-1U30350792022-12-07 00:47:2539.3096-93.5077828027970Clb=-16.7m/s t=-55.5C h=1.3% p=-1.0hPa 404.001 MHz Type=RS41-NG Radiosonde
KC0BQBU30350792022-12-07 00:46:5939.3087-93.5119667428264Clb=-20.5m/s t=-55.8C h=1.3% p=-1.0hPa 404.000 MHz Type=RS41-NG ser=U3035079 Radiosonde auto_rx v1.5.5
KD0ZJV-10U30350792022-12-07 00:46:4539.3082-93.5135728928424Clb=-26.8m/s t=-55.7C h=1.3% p=-1.0hPa 404.000 MHz Type=RS41-NG Radiosonde
N0GRP-1U30350792022-12-07 00:46:3539.3078-93.5154748528595Clb=-23.1m/s t=-56.6C h=1.4% p=-1.0hPa 404.001 MHz Type=RS41-NG Radiosonde
KC0BQBU30350792022-12-07 00:46:1239.3074-93.51968411128943Clb=-20.7m/s t=-55.8C h=1.4% p=-1.0hPa 404.000 MHz Type=RS41-NG ser=U3035079 Radiosonde auto_rx v1.5.5
KD0ZJV-10U30350792022-12-07 00:45:5839.3072-93.52288210929121Clb=-13.2m/s t=-53.6C h=1.2% p=-1.0hPa 404.000 MHz Type=RS41-NG Radiosonde
N0GRP-1U30350792022-12-07 00:45:4739.307-93.52528410629242Clb=-27.3m/s t=-53.4C h=1.1% p=-1.0hPa 404.000 MHz Type=RS41-NG Radiosonde
KC0BQBU30350792022-12-07 00:45:2739.3071-93.53049812429488Clb=-13.9m/s t=-54.2C h=1.2% p=-1.0hPa 404.000 MHz Type=RS41-NG ser=U3035079 Radiosonde auto_rx v1.5.5
KD0ZJV-10U30350792022-12-07 00:45:1039.3075-93.53410211329657Clb=-17.1m/s t=-54.4C h=1.3% p=-1.0hPa 404.000 MHz Type=RS41-NG Radiosonde
N0GRP-1U30350792022-12-07 00:45:0039.3076-93.53639110429790Clb=-21.2m/s t=-54.3C h=1.3% p=-1.0hPa 404.000 MHz Type=RS41-NG Radiosonde
KC0BQBU30350792022-12-07 00:44:4339.3082-93.54099811730148Clb=-36.0m/s t=-53.7C h=1.3% p=-1.0hPa 404.000 MHz Type=RS41-NG ser=U3035079 Radiosonde auto_rx v1.5.5
KD0ZJV-10U30350792022-12-07 00:44:2639.3082-93.54499711730545Clb=-37.6m/s t=-52.0C h=1.2% p=-1.0hPa 404.000 MHz Type=RS41-NG Radiosonde
N0GRP-1U30350792022-12-07 00:44:1539.308-93.54778313930860Clb=-46.1m/s t=-50.3C h=1.0% p=-1.0hPa 404.001 MHz Type=RS41-NG Radiosonde
KC0BQBU30350792022-12-07 00:44:0039.3079-93.55338915731314Clb=-27.7m/s t=-50.5C h=1.1% p=-1.0hPa 404.000 MHz Type=RS41-NG ser=U3035079 Radiosonde auto_rx v1.5.5
KD0ZJV-10U30350792022-12-07 00:43:4739.3079-93.55929515231647Clb=-29.3m/s t=-49.0C h=1.1% p=-1.0hPa 404.000 MHz Type=RS41-NG Radiosonde
N0GRP-1U30350792022-12-07 00:43:4039.3077-93.56329215031903Clb=-22.4m/s t=-46.9C h=1.0% p=-1.0hPa 404.000 MHz Type=RS41-NG Radiosonde
KC0BQBU30350792022-12-07 00:43:3039.3079-93.56839116532150Clb=-35.2m/s t=-44.3C h=0.7% p=-1.0hPa 404.000 MHz Type=RS41-NG ser=U3035079 Radiosonde auto_rx v1.5.5
KD0ZJV-10U30350792022-12-07 00:43:1739.3075-93.57589619132477Clb=-19.0m/s t=-45.0C h=0.8% p=-1.0hPa 404.000 MHz Type=RS41-NG Radiosonde
N0GRP-1U30350792022-12-07 00:43:0939.3068-93.57998418132635Clb=-31.4m/s t=-46.0C h=0.8% p=-1.0hPa 404.000 MHz Type=RS41-NG Radiosonde
KC0BQBU30350792022-12-07 00:43:0039.3062-93.58638814432648Clb=2.9m/s t=-45.9C h=0.9% p=-1.0hPa 404.000 MHz Type=RS41-NG ser=U3035079 Radiosonde auto_rx v1.5.5
KD0ZJV-10U30350792022-12-07 00:42:4539.3054-93.59536919632552Clb=9.8m/s t=-45.2C h=0.8% p=-1.0hPa 404.000 MHz Type=RS41-NG Radiosonde
N0GRP-1U30350792022-12-07 00:42:4139.3051-93.59957724132499Clb=2.7m/s t=-44.9C h=0.8% p=-1.0hPa 404.000 MHz Type=RS41-NG Radiosonde
KC0BQBU30350792022-12-07 00:42:3439.3044-93.60617615232424Clb=9.3m/s t=-44.4C h=0.8% p=-1.0hPa 404.000 MHz Type=RS41-NG ser=U3035079 Radiosonde auto_rx v1.5.5
KD0ZJV-10U30350792022-12-07 00:42:1739.3041-93.61447822232327Clb=2.6m/s t=-44.0C h=0.8% p=-1.0hPa 404.000 MHz Type=RS41-NG Radiosonde
N0GRP-1U30350792022-12-07 00:42:0739.3039-93.61779218332292Clb=7.3m/s t=-44.0C h=0.7% p=-1.0hPa 404.000 MHz Type=RS41-NG Radiosonde
KC0BQBU30350792022-12-07 00:42:0039.3036-93.62249215632238Clb=1.3m/s t=-44.3C h=0.8% p=-1.0hPa 404.000 MHz Type=RS41-NG ser=U3035079 Radiosonde auto_rx v1.5.5
KD0ZJV-10U30350792022-12-07 00:41:5639.3028-93.63219613532122Clb=6.7m/s t=-44.7C h=0.7% p=-1.0hPa 404.000 MHz Type=RS41-NG Radiosonde
KD0ZJV-10U30350792022-12-07 00:41:5439.3026-93.6488716531936Clb=10.2m/s t=-47.4C h=0.8% p=-1.0hPa 404.000 MHz Type=RS41-NG Radiosonde
N0GRP-1U30350792022-12-07 00:41:5239.303-93.65179514831898Clb=3.7m/s t=-48.0C h=0.8% p=-1.0hPa 404.000 MHz Type=RS41-NG Radiosonde
KC0BQBU30350792022-12-07 00:41:5139.3029-93.65469617431870Clb=7.9m/s t=-48.2C h=0.8% p=-1.0hPa 404.000 MHz Type=RS41-NG ser=U3035079 Radiosonde auto_rx v1.5.5
KD0ZJV-10U30350792022-12-07 00:41:4739.3035-93.66479612831753Clb=3.8m/s t=-50.1C h=1.0% p=-1.0hPa 404.000 MHz Type=RS41-NG Radiosonde
N0GRP-1U30350792022-12-07 00:41:4539.3033-93.66789516531723Clb=9.7m/s t=-50.3C h=1.0% p=-1.0hPa 404.003 MHz Type=RS41-NG Radiosonde
KC0BQBU30350792022-12-07 00:41:4439.3034-93.66958414131700Clb=7.7m/s t=-50.3C h=1.0% p=-1.0hPa 404.000 MHz Type=RS41-NG ser=U3035079 Radiosonde auto_rx v1.5.5
KD0ZJV-10U30350792022-12-07 00:41:3839.3028-93.67988819831584Clb=3.0m/s t=-50.9C h=1.0% p=-1.0hPa 404.000 MHz Type=RS41-NG Radiosonde
N0GRP-1U30350792022-12-07 00:41:3439.3029-93.68327819331537Clb=9.5m/s t=-51.3C h=1.0% p=-1.0hPa 404.000 MHz Type=RS41-NG Radiosonde
KD0ZJV-10U30350792022-12-07 00:41:3339.303-93.69548515231399Clb=11.4m/s t=-52.3C h=1.0% p=-1.0hPa 404.000 MHz Type=RS41-NG Radiosonde
N0GRP-1U30350792022-12-07 00:41:3139.3027-93.71399614831140Clb=6.8m/s t=-52.0C h=1.1% p=-1.0hPa 404.000 MHz Type=RS41-NG Radiosonde
KD0ZJV-10U30350792022-12-07 00:41:3039.302-93.72388216930968Clb=3.2m/s t=-53.2C h=1.1% p=-1.0hPa 404.000 MHz Type=RS41-NG Radiosonde
KC0BQBU30350792022-12-07 00:41:2939.302-93.72717516330904Clb=7.6m/s t=-53.1C h=1.1% p=-1.0hPa 404.000 MHz Type=RS41-NG ser=U3035079 Radiosonde auto_rx v1.5.5
KD0ZJV-10U30350792022-12-07 00:41:2839.3014-93.73658313730726Clb=8.5m/s t=-53.6C h=1.2% p=-1.0hPa 404.000 MHz Type=RS41-NG Radiosonde
N0GRP-1U30350792022-12-07 00:41:2739.3013-93.73879110430683Clb=6.2m/s t=-53.3C h=1.1% p=-1.0hPa 404.000 MHz Type=RS41-NG Radiosonde
KD0ZJV-10U30350792022-12-07 00:41:2639.3015-93.74789311730496Clb=9.6m/s t=-53.5C h=1.1% p=-1.0hPa 404.000 MHz Type=RS41-NG Radiosonde
KD0ZJV-10U30350792022-12-07 00:41:2439.302-93.7593949130260Clb=3.6m/s t=-53.1C h=1.1% p=-1.0hPa 404.000 MHz Type=RS41-NG Radiosonde
KD0ZJV-10U30350792022-12-07 00:41:2339.3018-93.76921069330034Clb=7.6m/s t=-53.6C h=1.2% p=-1.0hPa 404.000 MHz Type=RS41-NG Radiosonde
KC0BQBU30350792022-12-07 00:41:2239.3018-93.77028210230015Clb=8.9m/s t=-53.5C h=1.2% p=-1.0hPa 404.000 MHz Type=RS41-NG ser=U3035079 Radiosonde auto_rx v1.5.5
KD0ZJV-10U30350792022-12-07 00:41:0839.3024-93.77989512029833Clb=6.2m/s t=-53.8C h=1.2% p=-1.0hPa 404.000 MHz Type=RS41-NG Radiosonde
KC0BQBU30350792022-12-07 00:41:0639.3026-93.780511411129816Clb=6.3m/s t=-53.7C h=1.2% p=-1.0hPa 404.000 MHz Type=RS41-NG ser=U3035079 Radiosonde auto_rx v1.5.5
N0GRP-1U30350792022-12-07 00:40:5639.3028-93.78218211729785Clb=2.5m/s t=-53.6C h=1.1% p=-1.0hPa 404.000 MHz Type=RS41-NG Radiosonde
KC0BQBU30350792022-12-07 00:40:1839.3029-93.7906808329639Clb=4.0m/s t=-54.0C h=1.2% p=-1.0hPa 404.000 MHz Type=RS41-NG ser=U3035079 Radiosonde auto_rx v1.5.5
N0GRP-1U30350792022-12-07 00:40:0639.3031-93.79287612429602Clb=7.8m/s t=-53.8C h=1.1% p=-1.0hPa 404.000 MHz Type=RS41-NG Radiosonde
KC0BQBU30350792022-12-07 00:39:3339.3032-93.80138713929465Clb=5.2m/s t=-54.1C h=1.2% p=-1.0hPa 404.000 MHz Type=RS41-NG ser=U3035079 Radiosonde auto_rx v1.5.5
KD0ZJV-10U30350792022-12-07 00:39:3139.3032-93.80138713929465Clb=5.2m/s t=-54.1C h=1.2% p=-1.0hPa 404.000 MHz Type=RS41-NG Radiosonde
N0GRP-1U30350792022-12-07 00:39:2139.3031-93.80398212429427Clb=9.5m/s t=-54.0C h=1.2% p=-1.0hPa 404.000 MHz Type=RS41-NG Radiosonde
KC0BQBU30350792022-12-07 00:38:4839.3023-93.81228610729289Clb=5.7m/s t=-53.4C h=1.1% p=-1.0hPa 404.000 MHz Type=RS41-NG ser=U3035079 Radiosonde auto_rx v1.5.5
KD0ZJV-10U30350792022-12-07 00:38:4439.3022-93.8137912629277Clb=5.5m/s t=-53.4C h=1.2% p=-1.0hPa 404.000 MHz Type=RS41-NG Radiosonde
N0GRP-1U30350792022-12-07 00:38:3439.3019-93.8157511929236Clb=6.0m/s t=-53.2C h=1.1% p=-1.0hPa 404.000 MHz Type=RS41-NG Radiosonde
KC0BQBU30350792022-12-07 00:38:0139.3009-93.8226839429104Clb=6.0m/s t=-54.3C h=1.1% p=-1.0hPa 404.000 MHz Type=RS41-NG ser=U3035079 Radiosonde auto_rx v1.5.5
KD0ZJV-10U30350792022-12-07 00:37:5539.3008-93.82337611329090Clb=5.3m/s t=-54.6C h=1.2% p=-1.0hPa 404.000 MHz Type=RS41-NG Radiosonde
N0GRP-1U30350792022-12-07 00:37:4439.3006-93.8267112429041Clb=4.5m/s t=-55.1C h=1.2% p=-1.0hPa 404.000 MHz Type=RS41-NG Radiosonde
KC0BQBU30350792022-12-07 00:37:1139.3002-93.8329997828912Clb=9.1m/s t=-56.5C h=1.3% p=-1.0hPa 404.000 MHz Type=RS41-NG ser=U3035079 Radiosonde auto_rx v1.5.5
KD0ZJV-10U30350792022-12-07 00:37:0339.3003-93.83378710628892Clb=8.3m/s t=-56.6C h=1.3% p=-1.0hPa 404.000 MHz Type=RS41-NG Radiosonde
N0GRP-1U30350792022-12-07 00:36:5039.3-93.83628610928835Clb=8.7m/s t=-56.7C h=1.3% p=-1.0hPa 404.000 MHz Type=RS41-NG Radiosonde
KC0BQBU30350792022-12-07 00:36:2139.2996-93.8417725628695Clb=7.9m/s t=-56.9C h=1.3% p=-1.0hPa 404.000 MHz Type=RS41-NG ser=U3035079 Radiosonde auto_rx v1.5.5
KD0ZJV-10U30350792022-12-07 00:36:1139.2996-93.8424909828673Clb=9.5m/s t=-56.8C h=1.4% p=-1.0hPa 404.000 MHz Type=RS41-NG Radiosonde
N0GRP-1U30350792022-12-07 00:35:5939.2994-93.8443798328623Clb=9.6m/s t=-56.6C h=1.4% p=-1.0hPa 404.000 MHz Type=RS41-NG Radiosonde
KC0BQBU30350792022-12-07 00:35:3239.2987-93.849808528495Clb=9.0m/s t=-55.9C h=1.2% p=-1.0hPa 404.000 MHz Type=RS41-NG ser=U3035079 Radiosonde auto_rx v1.5.5
KD0ZJV-10U30350792022-12-07 00:35:2039.2983-93.8511738728422Clb=7.8m/s t=-56.1C h=1.3% p=-1.0hPa 404.000 MHz Type=RS41-NG Radiosonde
N0GRP-1U30350792022-12-07 00:35:1039.2979-93.852826928395Clb=8.3m/s t=-56.1C h=1.3% p=-1.0hPa 404.000 MHz Type=RS41-NG Radiosonde
KC0BQBU30350792022-12-07 00:34:4539.297-93.8557856928274Clb=9.2m/s t=-56.2C h=1.3% p=-1.0hPa 404.000 MHz Type=RS41-NG ser=U3035079 Radiosonde auto_rx v1.5.5
KD0ZJV-10U30350792022-12-07 00:34:3239.2968-93.8573748128222Clb=7.9m/s t=-55.9C h=1.3% p=-1.0hPa 404.000 MHz Type=RS41-NG Radiosonde
N0GRP-1U30350792022-12-07 00:34:2239.2964-93.86668028137Clb=8.7m/s t=-56.2C h=1.4% p=-1.0hPa 404.000 MHz Type=RS41-NG Radiosonde
KC0BQBU30350792022-12-07 00:33:5739.2959-93.863998328055Clb=4.3m/s t=-55.6C h=1.3% p=-1.0hPa 404.000 MHz Type=RS41-NG ser=U3035079 Radiosonde auto_rx v1.5.5
KD0ZJV-10U30350792022-12-07 00:33:4139.2955-93.865907228000Clb=4.2m/s t=-55.3C h=1.3% p=-1.0hPa 404.000 MHz Type=RS41-NG Radiosonde
N0GRP-1U30350792022-12-07 00:33:2939.2952-93.8667957427951Clb=4.8m/s t=-55.3C h=1.3% p=-1.0hPa 404.000 MHz Type=RS41-NG Radiosonde
KC0BQBU30350792022-12-07 00:33:0639.295-93.86981096727850Clb=6.8m/s t=-55.0C h=1.2% p=-1.0hPa 404.000 MHz Type=RS41-NG ser=U3035079 Radiosonde auto_rx v1.5.5
KD0ZJV-10U30350792022-12-07 00:32:4939.2951-93.87161056727790Clb=5.7m/s t=-55.3C h=1.2% p=-1.0hPa 404.000 MHz Type=RS41-NG Radiosonde
N0GRP-1U30350792022-12-07 00:32:3639.2954-93.8731037027741Clb=4.0m/s t=-55.3C h=1.2% p=-1.0hPa 404.000 MHz Type=RS41-NG Radiosonde
KC0BQBU30350792022-12-07 00:32:1139.2954-93.87541054627658Clb=7.9m/s t=-55.1C h=1.3% p=-1.0hPa 404.000 MHz Type=RS41-NG ser=U3035079 Radiosonde auto_rx v1.5.5
KD0ZJV-10U30350792022-12-07 00:31:5039.2957-93.87741026727594Clb=6.2m/s t=-54.8C h=1.3% p=-1.0hPa 404.000 MHz Type=RS41-NG Radiosonde
N0GRP-1U30350792022-12-07 00:31:3939.2957-93.8791095727551Clb=2.7m/s t=-54.7C h=1.3% p=-1.0hPa 404.000 MHz Type=RS41-NG Radiosonde
KC0BQBU30350792022-12-07 00:31:1939.2956-93.8822919627483Clb=5.6m/s t=-54.3C h=1.2% p=-1.0hPa 404.000 MHz Type=RS41-NG ser=U3035079 Radiosonde auto_rx v1.5.5
KD0ZJV-10U30350792022-12-07 00:30:5939.2958-93.8851066927420Clb=2.8m/s t=-54.0C h=1.2% p=-1.0hPa 404.000 MHz Type=RS41-NG Radiosonde
N0GRP-1U30350792022-12-07 00:30:4739.2958-93.8871128727380Clb=3.5m/s t=-53.9C h=1.2% p=-1.0hPa 404.000 MHz Type=RS41-NG Radiosonde
KC0BQBU30350792022-12-07 00:30:3039.2959-93.8904729427315Clb=4.5m/s t=-54.6C h=1.1% p=-1.0hPa 404.000 MHz Type=RS41-NG ser=U3035079 Radiosonde auto_rx v1.5.5
KD0ZJV-10U30350792022-12-07 00:30:0739.2958-93.89418311127249Clb=7.0m/s t=-56.3C h=1.3% p=-1.0hPa 404.000 MHz Type=RS41-NG Radiosonde
N0GRP-1U30350792022-12-07 00:29:5539.2959-93.89687811527200Clb=4.0m/s t=-56.5C h=1.3% p=-1.0hPa 404.000 MHz Type=RS41-NG Radiosonde
KC0BQBU30350792022-12-07 00:29:4039.2959-93.9999127146Clb=9.4m/s t=-57.1C h=1.3% p=-1.0hPa 404.000 MHz Type=RS41-NG ser=U3035079 Radiosonde auto_rx v1.5.5
KD0ZJV-10U30350792022-12-07 00:29:1539.2962-93.9037799627068Clb=9.0m/s t=-57.4C h=1.4% p=-1.0hPa 404.000 MHz Type=RS41-NG Radiosonde
N0GRP-1U30350792022-12-07 00:29:0339.2963-93.9069987426990Clb=4.7m/s t=-57.6C h=1.3% p=-1.0hPa 404.000 MHz Type=RS41-NG Radiosonde
KC0BQBU30350792022-12-07 00:28:5039.2962-93.908957826956Clb=9.1m/s t=-57.9C h=1.4% p=-1.0hPa 404.000 MHz Type=RS41-NG ser=U3035079 Radiosonde auto_rx v1.5.5
KD0ZJV-10U30350792022-12-07 00:28:2339.2965-93.91141017226857Clb=8.4m/s t=-58.0C h=1.4% p=-1.0hPa 404.000 MHz Type=RS41-NG Radiosonde
N0GRP-1U30350792022-12-07 00:28:1239.2969-93.9141027626778Clb=8.4m/s t=-58.0C h=1.4% p=-1.0hPa 404.000 MHz Type=RS41-NG Radiosonde
KC0BQBU30350792022-12-07 00:28:0039.297-93.91521116326739Clb=8.0m/s t=-58.0C h=1.4% p=-1.0hPa 404.000 MHz Type=RS41-NG ser=U3035079 Radiosonde auto_rx v1.5.5
KD0ZJV-10U30350792022-12-07 00:27:4439.2974-93.91881034326622Clb=7.2m/s t=-58.0C h=1.4% p=-1.0hPa 404.000 MHz Type=RS41-NG Radiosonde
KD0ZJV-10U30350792022-12-07 00:27:4339.3021-93.9702997024973Clb=3.0m/s t=-58.0C h=1.4% p=-1.0hPa 404.000 MHz Type=RS41-NG Radiosonde
KD0ZJV-10U30350792022-12-07 00:27:4139.3026-93.9767888024798Clb=6.2m/s t=-60.8C h=1.6% p=-1.0hPa 404.000 MHz Type=RS41-NG Radiosonde
KC0BQBU30350792022-12-07 00:27:3739.3024-93.9777803324769Clb=5.4m/s t=-61.0C h=1.7% p=-1.0hPa 404.000 MHz Type=RS41-NG ser=U3035079 Radiosonde auto_rx v1.5.5
N0GRP-1U30350792022-12-07 00:27:3439.3024-93.978945424757Clb=6.2m/s t=-60.9C h=1.7% p=-1.0hPa 404.000 MHz Type=RS41-NG Radiosonde
KD0ZJV-10U30350792022-12-07 00:27:0639.3014-93.9818765424612Clb=8.9m/s t=-61.0C h=1.6% p=-1.0hPa 404.000 MHz Type=RS41-NG Radiosonde
KC0BQBU30350792022-12-07 00:27:0239.3011-93.9826444624582Clb=2.6m/s t=-61.0C h=1.7% p=-1.0hPa 404.000 MHz Type=RS41-NG ser=U3035079 Radiosonde auto_rx v1.5.5
N0GRP-1U30350792022-12-07 00:27:0139.301-93.9828785624570Clb=8.5m/s t=-61.0C h=1.6% p=-1.0hPa 404.000 MHz Type=RS41-NG Radiosonde
KD0ZJV-10U30350792022-12-07 00:27:0039.3003-93.986525024417Clb=7.2m/s t=-60.6C h=1.7% p=-1.0hPa 404.000 MHz Type=RS41-NG Radiosonde
N0GRP-1U30350792022-12-07 00:26:5939.3-93.987556324366Clb=6.7m/s t=-60.6C h=1.7% p=-1.0hPa 404.000 MHz Type=RS41-NG Radiosonde
KD0ZJV-10U30350792022-12-07 00:26:5839.2993-93.99021032824218Clb=6.4m/s t=-61.4C h=1.8% p=-1.0hPa 404.000 MHz Type=RS41-NG Radiosonde
N0GRP-1U30350792022-12-07 00:26:5739.2993-93.9909924124173Clb=6.4m/s t=-61.2C h=1.8% p=-1.0hPa 404.000 MHz Type=RS41-NG Radiosonde
KD0ZJV-10U30350792022-12-07 00:26:5439.2991-93.9937813024015Clb=8.7m/s t=-61.3C h=1.6% p=-1.0hPa 404.000 MHz Type=RS41-NG Radiosonde
KC0BQBU30350792022-12-07 00:26:5339.2991-93.9937821324007Clb=7.6m/s t=-61.5C h=1.6% p=-1.0hPa 404.000 MHz Type=RS41-NG ser=U3035079 Radiosonde auto_rx v1.5.5
N0GRP-1U30350792022-12-07 00:26:4539.2991-93.9945793323963Clb=6.2m/s t=-61.7C h=1.6% p=-1.0hPa 404.000 MHz Type=RS41-NG Radiosonde
KC0BQBU30350792022-12-07 00:26:0739.2991-93.9975622223804Clb=5.8m/s t=-62.5C h=1.9% p=-1.0hPa 404.000 MHz Type=RS41-NG ser=U3035079 Radiosonde auto_rx v1.5.5
KD0ZJV-10U30350792022-12-07 00:26:0639.2991-93.9975622223804Clb=5.8m/s t=-62.5C h=1.9% p=-1.0hPa 404.000 MHz Type=RS41-NG Radiosonde
N0GRP-1U30350792022-12-07 00:25:5439.299-93.9984532823755Clb=5.4m/s t=-62.1C h=1.9% p=-1.0hPa 404.000 MHz Type=RS41-NG Radiosonde
KC0BQBU30350792022-12-07 00:25:1839.2987-94.0014934123606Clb=8.6m/s t=-60.7C h=1.7% p=-1.0hPa 404.000 MHz Type=RS41-NG ser=U3035079 Radiosonde auto_rx v1.5.5
KD0ZJV-10U30350792022-12-07 00:25:1439.2987-94.00151012223598Clb=8.3m/s t=-60.6C h=1.8% p=-1.0hPa 404.000 MHz Type=RS41-NG Radiosonde
N0GRP-1U30350792022-12-07 00:25:0339.2986-94.00251053123548Clb=6.0m/s t=-60.3C h=1.7% p=-1.0hPa 404.000 MHz Type=RS41-NG Radiosonde
KC0BQBU30350792022-12-07 00:24:3339.2982-94.0055785223409Clb=6.4m/s t=-59.5C h=1.6% p=-1.0hPa 404.000 MHz Type=RS41-NG ser=U3035079 Radiosonde auto_rx v1.5.5
KD0ZJV-10U30350792022-12-07 00:24:2239.2981-94.0057593923396Clb=7.9m/s t=-59.5C h=1.6% p=-1.0hPa 404.000 MHz Type=RS41-NG Radiosonde
N0GRP-1U30350792022-12-07 00:24:0939.2977-94.0068322823348Clb=6.7m/s t=-59.6C h=1.7% p=-1.0hPa 404.000 MHz Type=RS41-NG Radiosonde
KC0BQBU30350792022-12-07 00:23:3739.2968-94.009993723231Clb=5.8m/s t=-60.1C h=1.7% p=-1.0hPa 404.000 MHz Type=RS41-NG ser=U3035079 Radiosonde auto_rx v1.5.5
KD0ZJV-10U30350792022-12-07 00:23:2839.2968-94.0094803023212Clb=6.1m/s t=-60.9C h=1.8% p=-1.0hPa 404.000 MHz Type=RS41-NG Radiosonde
N0GRP-1U30350792022-12-07 00:23:1439.2968-94.01041092823164Clb=5.7m/s t=-61.4C h=1.8% p=-1.0hPa 404.000 MHz Type=RS41-NG Radiosonde
KC0BQBU30350792022-12-07 00:22:4139.2967-94.013845023057Clb=5.1m/s t=-61.7C h=1.9% p=-1.0hPa 404.000 MHz Type=RS41-NG ser=U3035079 Radiosonde auto_rx v1.5.5
KD0ZJV-10U30350792022-12-07 00:22:3139.2967-94.01371076123029Clb=7.1m/s t=-61.4C h=1.9% p=-1.0hPa 404.000 MHz Type=RS41-NG Radiosonde
N0GRP-1U30350792022-12-07 00:22:1939.297-94.0153955222977Clb=5.9m/s t=-61.4C h=1.9% p=-1.0hPa 404.000 MHz Type=RS41-NG Radiosonde
KC0BQBU30350792022-12-07 00:21:4939.2973-94.01751224622894Clb=5.7m/s t=-61.3C h=1.9% p=-1.0hPa 404.000 MHz Type=RS41-NG ser=U3035079 Radiosonde auto_rx v1.5.5
KD0ZJV-10U30350792022-12-07 00:21:3839.2975-94.0183804122868Clb=4.8m/s t=-61.4C h=1.8% p=-1.0hPa 404.000 MHz Type=RS41-NG Radiosonde
N0GRP-1U30350792022-12-07 00:21:2639.2978-94.01951093922829Clb=4.3m/s t=-61.8C h=1.9% p=-1.0hPa 404.000 MHz Type=RS41-NG Radiosonde
KC0BQBU30350792022-12-07 00:20:5939.2983-94.0229915222736Clb=3.0m/s t=-63.0C h=2.1% p=-1.0hPa 404.000 MHz Type=RS41-NG ser=U3035079 Radiosonde auto_rx v1.5.5
KD0ZJV-10U30350792022-12-07 00:20:4639.2984-94.0243916522700Clb=5.9m/s t=-63.3C h=2.1% p=-1.0hPa 404.000 MHz Type=RS41-NG Radiosonde
N0GRP-1U30350792022-12-07 00:20:3439.2985-94.0256985722659Clb=6.3m/s t=-63.6C h=2.1% p=-1.0hPa 404.000 MHz Type=RS41-NG Radiosonde
KC0BQBU30350792022-12-07 00:20:0939.2984-94.0285724322568Clb=6.8m/s t=-65.1C h=2.3% p=-1.0hPa 404.000 MHz Type=RS41-NG ser=U3035079 Radiosonde auto_rx v1.5.5
KD0ZJV-10U30350792022-12-07 00:19:5339.2982-94.0296805422519Clb=6.6m/s t=-65.5C h=2.4% p=-1.0hPa 404.000 MHz Type=RS41-NG Radiosonde
N0GRP-1U30350792022-12-07 00:19:4039.2981-94.0303612422480Clb=5.9m/s t=-65.5C h=2.3% p=-1.0hPa 404.000 MHz Type=RS41-NG Radiosonde
KC0BQBU30350792022-12-07 00:19:1639.298-94.0319653722395Clb=5.9m/s t=-65.6C h=2.3% p=-1.0hPa 404.000 MHz Type=RS41-NG ser=U3035079 Radiosonde auto_rx v1.5.5
KD0ZJV-10U30350792022-12-07 00:19:0039.2979-94.0328822622335Clb=7.5m/s t=-66.1C h=2.6% p=-1.0hPa 404.000 MHz Type=RS41-NG Radiosonde
N0GRP-1U30350792022-12-07 00:18:4839.2979-94.0332952222305Clb=5.2m/s t=-65.9C h=2.6% p=-1.0hPa 404.000 MHz Type=RS41-NG Radiosonde
KC0BQBU30350792022-12-07 00:18:2539.2983-94.03451313122221Clb=5.9m/s t=-65.2C h=2.5% p=-1.0hPa 404.000 MHz Type=RS41-NG ser=U3035079 Radiosonde auto_rx v1.5.5
KD0ZJV-10U30350792022-12-07 00:18:0639.2985-94.03551024822159Clb=6.5m/s t=-65.0C h=2.4% p=-1.0hPa 404.000 MHz Type=RS41-NG Radiosonde
N0GRP-1U30350792022-12-07 00:17:5439.2987-94.03621223922115Clb=5.2m/s t=-64.6C h=2.5% p=-1.0hPa 404.000 MHz Type=RS41-NG Radiosonde
KC0BQBU30350792022-12-07 00:17:3439.2997-94.03751214622027Clb=8.5m/s t=-64.0C h=2.3% p=-1.0hPa 404.000 MHz Type=RS41-NG ser=U3035079 Radiosonde auto_rx v1.5.5
KD0ZJV-10U30350792022-12-07 00:17:1139.3003-94.03861114621962Clb=5.4m/s t=-63.8C h=2.4% p=-1.0hPa 404.000 MHz Type=RS41-NG Radiosonde
N0GRP-1U30350792022-12-07 00:16:5839.3008-94.03971176921908Clb=8.5m/s t=-63.9C h=2.4% p=-1.0hPa 404.000 MHz Type=RS41-NG Radiosonde
KC0BQBU30350792022-12-07 00:16:3839.3018-94.04161256321836Clb=6.2m/s t=-63.9C h=2.3% p=-1.0hPa 404.000 MHz Type=RS41-NG ser=U3035079 Radiosonde auto_rx v1.5.5
KD0ZJV-10U30350792022-12-07 00:16:1639.3029-94.04431167021748Clb=6.6m/s t=-64.5C h=2.3% p=-1.0hPa 404.000 MHz Type=RS41-NG Radiosonde
N0GRP-1U30350792022-12-07 00:16:0439.3033-94.04571176721710Clb=6.5m/s t=-65.7C h=2.5% p=-1.0hPa 404.000 MHz Type=RS41-NG Radiosonde
KC0BQBU30350792022-12-07 00:15:4839.3039-94.04811117021653Clb=6.7m/s t=-66.8C h=2.7% p=-1.0hPa 404.000 MHz Type=RS41-NG ser=U3035079 Radiosonde auto_rx v1.5.5
KD0ZJV-10U30350792022-12-07 00:15:2539.3045-94.05111025621575Clb=6.3m/s t=-66.8C h=2.8% p=-1.0hPa 404.000 MHz Type=RS41-NG Radiosonde
N0GRP-1U30350792022-12-07 00:15:1339.3048-94.0527966121533Clb=4.6m/s t=-66.6C h=2.8% p=-1.0hPa 404.000 MHz Type=RS41-NG Radiosonde
KC0BQBU30350792022-12-07 00:14:5739.3051-94.0549997621470Clb=7.2m/s t=-66.3C h=2.9% p=-1.0hPa 404.000 MHz Type=RS41-NG ser=U3035079 Radiosonde auto_rx v1.5.5
KD0ZJV-10U30350792022-12-07 00:14:3239.3056-94.05791066521384Clb=5.4m/s t=-65.7C h=2.6% p=-1.0hPa 404.000 MHz Type=RS41-NG Radiosonde
N0GRP-1U30350792022-12-07 00:14:1939.3057-94.0594997021339Clb=7.0m/s t=-65.5C h=2.6% p=-1.0hPa 404.000 MHz Type=RS41-NG Radiosonde
KC0BQBU30350792022-12-07 00:14:0539.3059-94.06131035721281Clb=6.0m/s t=-65.9C h=2.7% p=-1.0hPa 404.000 MHz Type=RS41-NG ser=U3035079 Radiosonde auto_rx v1.5.5
KD0ZJV-10U30350792022-12-07 00:13:3939.3063-94.0648958921183Clb=5.5m/s t=-66.0C h=2.8% p=-1.0hPa 404.000 MHz Type=RS41-NG Radiosonde
N0GRP-1U30350792022-12-07 00:13:2639.3064-94.0666958021137Clb=7.8m/s t=-65.6C h=2.7% p=-1.0hPa 404.000 MHz Type=RS41-NG Radiosonde
KC0BQBU30350792022-12-07 00:13:1539.3065-94.0687988521083Clb=5.8m/s t=-65.5C h=2.7% p=-1.0hPa 404.000 MHz Type=RS41-NG ser=U3035079 Radiosonde auto_rx v1.5.5
KD0ZJV-10U30350792022-12-07 00:12:4539.3064-94.0734808120975Clb=4.8m/s t=-65.3C h=2.8% p=-1.0hPa 404.000 MHz Type=RS41-NG Radiosonde
KD0ZJV-10U30350792022-12-07 00:12:2039.3059-94.0823839420777Clb=6.6m/s t=-65.9C h=2.9% p=-1.0hPa 404.000 MHz Type=RS41-NG Radiosonde
N0GRP-1U30350792022-12-07 00:12:0639.3056-94.0846818720728Clb=6.1m/s t=-65.8C h=3.0% p=-1.0hPa 404.000 MHz Type=RS41-NG Radiosonde
KC0BQBU30350792022-12-07 00:12:0039.3054-94.086808120698Clb=6.9m/s t=-65.5C h=2.9% p=-1.0hPa 404.000 MHz Type=RS41-NG ser=U3035079 Radiosonde auto_rx v1.5.5
KD0ZJV-10U30350792022-12-07 00:11:4139.3048-94.0911779820592Clb=5.4m/s t=-65.9C h=2.7% p=-1.0hPa 404.000 MHz Type=RS41-NG Radiosonde
N0GRP-1U30350792022-12-07 00:11:3839.3046-94.0934938120545Clb=7.1m/s t=-67.7C h=3.3% p=-1.0hPa 404.000 MHz Type=RS41-NG Radiosonde
KC0BQBU30350792022-12-07 00:11:3439.3047-94.0945869120523Clb=3.7m/s t=-67.6C h=3.2% p=-1.0hPa 404.000 MHz Type=RS41-NG ser=U3035079 Radiosonde auto_rx v1.5.5
KD0ZJV-10U30350792022-12-07 00:11:1239.305-94.0996977620412Clb=5.0m/s t=-66.9C h=3.2% p=-1.0hPa 404.000 MHz Type=RS41-NG Radiosonde
N0GRP-1U30350792022-12-07 00:11:0339.3052-94.1017998320363Clb=7.2m/s t=-66.7C h=3.1% p=-1.0hPa 404.000 MHz Type=RS41-NG Radiosonde
KC0BQBU30350792022-12-07 00:11:0039.3053-94.1024908020347Clb=6.7m/s t=-66.6C h=3.1% p=-1.0hPa 404.000 MHz Type=RS41-NG ser=U3035079 Radiosonde auto_rx v1.5.5
KD0ZJV-10U30350792022-12-07 00:10:5139.3058-94.10821009420242Clb=5.8m/s t=-66.0C h=3.0% p=-1.0hPa 404.000 MHz Type=RS41-NG Radiosonde
N0GRP-1U30350792022-12-07 00:10:4839.306-94.1106948920199Clb=6.4m/s t=-65.8C h=3.0% p=-1.0hPa 404.000 MHz Type=RS41-NG Radiosonde
KC0BQBU30350792022-12-07 00:10:4739.3061-94.1112949820188Clb=4.1m/s t=-65.8C h=2.9% p=-1.0hPa 404.000 MHz Type=RS41-NG ser=U3035079 Radiosonde auto_rx v1.5.5
KD0ZJV-10U30350792022-12-07 00:10:4139.3065-94.1173918920071Clb=5.5m/s t=-66.5C h=3.1% p=-1.0hPa 404.000 MHz Type=RS41-NG Radiosonde
N0GRP-1U30350792022-12-07 00:10:3139.3064-94.119907820034Clb=5.7m/s t=-66.7C h=3.0% p=-1.0hPa 404.000 MHz Type=RS41-NG Radiosonde
KC0BQBU30350792022-12-07 00:10:3039.3064-94.1192986920027Clb=7.5m/s t=-66.7C h=3.1% p=-1.0hPa 404.000 MHz Type=RS41-NG ser=U3035079 Radiosonde auto_rx v1.5.5
KD0ZJV-10U30350792022-12-07 00:10:0839.3061-94.1245818319904Clb=6.9m/s t=-66.7C h=3.1% p=-1.0hPa 404.000 MHz Type=RS41-NG Radiosonde
KC0BQBU30350792022-12-07 00:10:0139.306-94.1267828519858Clb=7.6m/s t=-66.7C h=3.1% p=-1.0hPa 404.000 MHz Type=RS41-NG ser=U3035079 Radiosonde auto_rx v1.5.5
KD0ZJV-10U30350792022-12-07 00:09:5839.3053-94.1326807619721Clb=4.7m/s t=-66.8C h=3.2% p=-1.0hPa 404.000 MHz Type=RS41-NG Radiosonde
KC0BQBU30350792022-12-07 00:09:5739.305-94.1343696719679Clb=5.7m/s t=-66.4C h=3.2% p=-1.0hPa 404.000 MHz Type=RS41-NG ser=U3035079 Radiosonde auto_rx v1.5.5
N0GRP-1U30350792022-12-07 00:09:5639.3049-94.1347757819668Clb=6.9m/s t=-66.4C h=3.2% p=-1.0hPa 404.000 MHz Type=RS41-NG Radiosonde
KD0ZJV-10U30350792022-12-07 00:09:4939.3042-94.1402868119527Clb=4.4m/s t=-65.5C h=3.1% p=-1.0hPa 404.000 MHz Type=RS41-NG Radiosonde
KC0BQBU30350792022-12-07 00:09:4839.304-94.1413777819498Clb=6.6m/s t=-65.5C h=3.1% p=-1.0hPa 404.000 MHz Type=RS41-NG ser=U3035079 Radiosonde auto_rx v1.5.5
KC0BQBU30350792022-12-07 00:09:4739.3036-94.1489878919310Clb=6.2m/s t=-65.8C h=3.2% p=-1.0hPa 404.000 MHz Type=RS41-NG ser=U3035079 Radiosonde auto_rx v1.5.5
KD0ZJV-10U30350792022-12-07 00:09:4539.3037-94.1555848319147Clb=6.7m/s t=-66.2C h=3.2% p=-1.0hPa 404.000 MHz Type=RS41-NG Radiosonde
KD0ZJV-10U30350792022-12-07 00:09:4439.3035-94.1637848518968Clb=6.0m/s t=-66.8C h=3.1% p=-1.0hPa 404.000 MHz Type=RS41-NG Radiosonde
N0GRP-1U30350792022-12-07 00:09:4339.3033-94.1656688718932Clb=5.0m/s t=-68.0C h=3.6% p=-1.0hPa 404.000 MHz Type=RS41-NG Radiosonde
KD0ZJV-10U30350792022-12-07 00:09:4239.3031-94.1722878518800Clb=5.8m/s t=-67.2C h=3.5% p=-1.0hPa 404.000 MHz Type=RS41-NG Radiosonde
KC0BQBU30350792022-12-07 00:09:4039.3039-94.1806919418612Clb=4.3m/s t=-65.6C h=3.3% p=-1.0hPa 404.000 MHz Type=RS41-NG ser=U3035079 Radiosonde auto_rx v1.5.5
N0GRP-1U30350792022-12-07 00:09:3739.3042-94.1827888118574Clb=4.0m/s t=-65.4C h=3.2% p=-1.0hPa 404.000 MHz Type=RS41-NG Radiosonde
KC0BQBU30350792022-12-07 00:09:0839.3053-94.19999418441Clb=11.4m/s t=-65.4C h=3.3% p=-1.0hPa 404.000 MHz Type=RS41-NG ser=U3035079 Radiosonde auto_rx v1.5.5
KD0ZJV-10U30350792022-12-07 00:09:0539.3053-94.19021036718431Clb=9.3m/s t=-65.3C h=3.3% p=-1.0hPa 404.000 MHz Type=RS41-NG Radiosonde
N0GRP-1U30350792022-12-07 00:08:5439.3056-94.1931017618372Clb=10.6m/s t=-65.0C h=3.4% p=-1.0hPa 404.000 MHz Type=RS41-NG Radiosonde
KC0BQBU30350792022-12-07 00:08:2039.3058-94.1985978918243Clb=7.8m/s t=-64.0C h=3.4% p=-1.0hPa 404.000 MHz Type=RS41-NG ser=U3035079 Radiosonde auto_rx v1.5.5
KD0ZJV-10U30350792022-12-07 00:08:1639.3059-94.1991909118232Clb=7.0m/s t=-63.9C h=3.3% p=-1.0hPa 404.000 MHz Type=RS41-NG Radiosonde
N0GRP-1U30350792022-12-07 00:08:0539.3058-94.2011858718185Clb=5.8m/s t=-63.5C h=3.3% p=-1.0hPa 404.000 MHz Type=RS41-NG Radiosonde
KC0BQBU30350792022-12-07 00:07:3139.3057-94.2061989118071Clb=3.8m/s t=-64.3C h=3.3% p=-1.0hPa 404.000 MHz Type=RS41-NG ser=U3035079 Radiosonde auto_rx v1.5.5
KD0ZJV-10U30350792022-12-07 00:07:2539.3056-94.207689118055Clb=6.5m/s t=-64.6C h=3.3% p=-1.0hPa 404.000 MHz Type=RS41-NG Radiosonde
N0GRP-1U30350792022-12-07 00:07:1339.3053-94.20937910018008Clb=6.5m/s t=-65.8C h=3.8% p=-1.0hPa 404.000 MHz Type=RS41-NG Radiosonde
KC0BQBU30350792022-12-07 00:06:4239.304-94.2148689117899Clb=6.1m/s t=-66.5C h=4.1% p=-1.0hPa 404.000 MHz Type=RS41-NG ser=U3035079 Radiosonde auto_rx v1.5.5
KD0ZJV-10U30350792022-12-07 00:06:3339.3037-94.2158698517878Clb=5.5m/s t=-66.4C h=4.0% p=-1.0hPa 404.000 MHz Type=RS41-NG Radiosonde
N0GRP-1U30350792022-12-07 00:06:2039.3032-94.218708017834Clb=6.6m/s t=-66.1C h=4.0% p=-1.0hPa 404.000 MHz Type=RS41-NG Radiosonde
KC0BQBU30350792022-12-07 00:05:5139.3018-94.223619117737Clb=7.2m/s t=-66.4C h=4.3% p=-1.0hPa 404.000 MHz Type=RS41-NG ser=U3035079 Radiosonde auto_rx v1.5.5
KD0ZJV-10U30350792022-12-07 00:05:3939.3013-94.22447411117711Clb=3.9m/s t=-66.3C h=4.2% p=-1.0hPa 404.000 MHz Type=RS41-NG Radiosonde
N0GRP-1U30350792022-12-07 00:05:2739.3005-94.22687210417667Clb=6.3m/s t=-66.0C h=4.4% p=-1.0hPa 404.000 MHz Type=RS41-NG Radiosonde
KC0BQBU30350792022-12-07 00:04:5839.2993-94.23217411317563Clb=5.5m/s t=-66.2C h=4.4% p=-1.0hPa 404.000 MHz Type=RS41-NG ser=U3035079 Radiosonde auto_rx v1.5.5
KD0ZJV-10U30350792022-12-07 00:04:4839.2989-94.2348788517517Clb=2.4m/s t=-66.3C h=4.6% p=-1.0hPa 404.000 MHz Type=RS41-NG Radiosonde
N0GRP-1U30350792022-12-07 00:04:3739.2985-94.2372859617477Clb=6.6m/s t=-66.1C h=4.7% p=-1.0hPa 404.000 MHz Type=RS41-NG Radiosonde
KC0BQBU30350792022-12-07 00:04:1139.2979-94.24248213017377Clb=5.9m/s t=-66.3C h=4.6% p=-1.0hPa 404.000 MHz Type=RS41-NG ser=U3035079 Radiosonde auto_rx v1.5.5
KD0ZJV-10U30350792022-12-07 00:03:5839.2978-94.24528512617336Clb=7.3m/s t=-66.7C h=4.9% p=-1.0hPa 404.000 MHz Type=RS41-NG Radiosonde
N0GRP-1U30350792022-12-07 00:03:4539.2975-94.24847813017289Clb=6.3m/s t=-66.9C h=5.1% p=-1.0hPa 404.000 MHz Type=RS41-NG Radiosonde
KC0BQBU30350792022-12-07 00:03:2139.2968-94.25418112217200Clb=5.6m/s t=-66.5C h=5.0% p=-1.0hPa 404.000 MHz Type=RS41-NG ser=U3035079 Radiosonde auto_rx v1.5.5
KD0ZJV-10U30350792022-12-07 00:03:0839.2965-94.25718011917156Clb=6.3m/s t=-66.4C h=4.7% p=-1.0hPa 404.000 MHz Type=RS41-NG Radiosonde
N0GRP-1U30350792022-12-07 00:02:5539.2962-94.26027711317109Clb=6.9m/s t=-67.6C h=5.2% p=-1.0hPa 404.000 MHz Type=RS41-NG Radiosonde
KC0BQBU30350792022-12-07 00:02:3439.2953-94.26568011517031Clb=4.2m/s t=-68.4C h=5.5% p=-1.0hPa 404.000 MHz Type=RS41-NG ser=U3035079 Radiosonde auto_rx v1.5.5
KD0ZJV-10U30350792022-12-07 00:02:1839.2946-94.26917512016980Clb=6.9m/s t=-68.6C h=5.3% p=-1.0hPa 404.000 MHz Type=RS41-NG Radiosonde
N0GRP-1U30350792022-12-07 00:02:0539.294-94.27258012616937Clb=5.2m/s t=-68.7C h=5.2% p=-1.0hPa 404.000 MHz Type=RS41-NG Radiosonde
KC0BQBU30350792022-12-07 00:01:4339.293-94.2787012816866Clb=4.0m/s t=-69.1C h=5.3% p=-1.0hPa 404.000 MHz Type=RS41-NG ser=U3035079 Radiosonde auto_rx v1.5.5
KD0ZJV-10U30350792022-12-07 00:01:2339.2923-94.28197612416816Clb=5.2m/s t=-69.4C h=5.2% p=-1.0hPa 404.000 MHz Type=RS41-NG Radiosonde
N0GRP-1U30350792022-12-07 00:01:1139.2917-94.28487813016773Clb=6.0m/s t=-69.4C h=5.3% p=-1.0hPa 404.000 MHz Type=RS41-NG Radiosonde
KC0BQBU30350792022-12-07 00:00:4939.2909-94.28928111916708Clb=4.9m/s t=-69.4C h=5.3% p=-1.0hPa 404.000 MHz Type=RS41-NG ser=U3035079 Radiosonde auto_rx v1.5.5
KD0ZJV-10U30350792022-12-07 00:00:3039.2903-94.29398711316645Clb=4.8m/s t=-68.9C h=5.0% p=-1.0hPa 404.000 MHz Type=RS41-NG Radiosonde
N0GRP-1U30350792022-12-07 00:00:1739.2899-94.2978013016604Clb=6.1m/s t=-68.5C h=4.9% p=-1.0hPa 404.000 MHz Type=RS41-NG Radiosonde
KC0BQBU30350792022-12-07 00:00:0039.2894-94.3018012416549Clb=6.2m/s t=-68.0C h=4.6% p=-1.0hPa 404.000 MHz Type=RS41-NG ser=U3035079 Radiosonde auto_rx v1.5.5
KD0ZJV-10U30350792022-12-06 23:59:4739.2888-94.30638113916479Clb=5.3m/s t=-68.1C h=4.6% p=-1.0hPa 404.000 MHz Type=RS41-NG Radiosonde
N0GRP-1U30350792022-12-06 23:59:4039.2884-94.30928812016444Clb=4.5m/s t=-68.0C h=4.7% p=-1.0hPa 404.000 MHz Type=RS41-NG Radiosonde
KC0BQBU30350792022-12-06 23:59:3939.2879-94.31338312616393Clb=4.1m/s t=-67.7C h=4.5% p=-1.0hPa 404.000 MHz Type=RS41-NG ser=U3035079 Radiosonde auto_rx v1.5.5
KD0ZJV-10U30350792022-12-06 23:59:3839.2874-94.3198012616321Clb=5.2m/s t=-67.3C h=4.3% p=-1.0hPa 404.000 MHz Type=RS41-NG Radiosonde
KC0BQBU30350792022-12-06 23:59:3739.2867-94.32588013116240Clb=4.7m/s t=-66.8C h=4.1% p=-1.0hPa 404.000 MHz Type=RS41-NG ser=U3035079 Radiosonde auto_rx v1.5.5
N0GRP-1U30350792022-12-06 23:59:3639.2856-94.33578014616129Clb=5.8m/s t=-66.3C h=4.0% p=-1.0hPa 404.000 MHz Type=RS41-NG Radiosonde
KD0ZJV-10U30350792022-12-06 23:59:3539.2845-94.34737915216004Clb=6.7m/s t=-65.6C h=3.8% p=-1.0hPa 404.000 MHz Type=RS41-NG Radiosonde
N0GRP-1U30350792022-12-06 23:59:3439.2841-94.35078314615967Clb=6.1m/s t=-65.4C h=3.8% p=-1.0hPa 404.000 MHz Type=RS41-NG Radiosonde
KC0BQBU30350792022-12-06 23:59:3139.2838-94.35418415215932Clb=2.7m/s t=-65.2C h=3.8% p=-1.0hPa 404.000 MHz Type=RS41-NG ser=U3035079 Radiosonde auto_rx v1.5.5
KD0ZJV-10U30350792022-12-06 23:59:2939.2827-94.36248015415847Clb=6.6m/s t=-64.6C h=3.7% p=-1.0hPa 404.000 MHz Type=RS41-NG Radiosonde
N0GRP-1U30350792022-12-06 23:59:2239.2822-94.36648016515807Clb=3.7m/s t=-64.5C h=3.7% p=-1.0hPa 404.000 MHz Type=RS41-NG Radiosonde
KC0BQBU30350792022-12-06 23:59:1739.2818-94.36898014815781Clb=5.3m/s t=-64.4C h=3.7% p=-1.0hPa 404.000 MHz Type=RS41-NG ser=U3035079 Radiosonde auto_rx v1.5.5
KD0ZJV-10U30350792022-12-06 23:59:0139.2805-94.37758115015687Clb=4.3m/s t=-64.8C h=4.0% p=-1.0hPa 404.000 MHz Type=RS41-NG Radiosonde
N0GRP-1U30350792022-12-06 23:59:0039.2799-94.38137616115640Clb=7.5m/s t=-64.9C h=3.9% p=-1.0hPa 404.000 MHz Type=RS41-NG Radiosonde
KD0ZJV-10U30350792022-12-06 23:58:5939.279-94.39298915615512Clb=4.4m/s t=-65.0C h=4.5% p=-1.0hPa 404.000 MHz Type=RS41-NG Radiosonde
KC0BQBU30350792022-12-06 23:58:5839.2787-94.39858016915444Clb=11.6m/s t=-65.0C h=4.2% p=-1.0hPa 404.000 MHz Type=RS41-NG ser=U3035079 Radiosonde auto_rx v1.5.5
KD0ZJV-10U30350792022-12-06 23:58:4939.2782-94.418718515313Clb=5.7m/s t=-64.9C h=4.5% p=-1.0hPa 404.000 MHz Type=RS41-NG Radiosonde
N0GRP-1U30350792022-12-06 23:58:3939.2778-94.41478319615269Clb=5.9m/s t=-65.0C h=4.6% p=-1.0hPa 404.000 MHz Type=RS41-NG Radiosonde
KC0BQBU30350792022-12-06 23:58:3639.2777-94.4168518915259Clb=4.7m/s t=-64.9C h=4.6% p=-1.0hPa 404.000 MHz Type=RS41-NG ser=U3035079 Radiosonde auto_rx v1.5.5
KD0ZJV-10U30350792022-12-06 23:58:0039.2766-94.42828317815149Clb=5.9m/s t=-63.9C h=4.3% p=-1.0hPa 404.000 MHz Type=RS41-NG Radiosonde
N0GRP-1U30350792022-12-06 23:57:4739.2762-94.43288117015108Clb=4.4m/s t=-64.0C h=4.2% p=-1.0hPa 404.001 MHz Type=RS41-NG Radiosonde
KC0BQBU30350792022-12-06 23:57:4639.2761-94.43338317615103Clb=6.4m/s t=-64.1C h=4.2% p=-1.0hPa 404.000 MHz Type=RS41-NG ser=U3035079 Radiosonde auto_rx v1.5.5
KD0ZJV-10U30350792022-12-06 23:57:0439.2746-94.44557917614988Clb=6.7m/s t=-64.2C h=4.4% p=-1.0hPa 404.000 MHz Type=RS41-NG Radiosonde
KC0BQBU30350792022-12-06 23:56:5339.274-94.45017916514944Clb=5.7m/s t=-64.2C h=4.3% p=-1.0hPa 404.000 MHz Type=RS41-NG ser=U3035079 Radiosonde auto_rx v1.5.5
N0GRP-1U30350792022-12-06 23:56:5139.274-94.45017916514944Clb=5.7m/s t=-64.2C h=4.3% p=-1.0hPa 404.001 MHz Type=RS41-NG Radiosonde
KD0ZJV-10U30350792022-12-06 23:56:1239.2716-94.46347618314824Clb=5.5m/s t=-64.3C h=4.3% p=-1.0hPa 404.000 MHz Type=RS41-NG Radiosonde
KC0BQBU30350792022-12-06 23:56:0239.2708-94.46757619314788Clb=4.4m/s t=-64.5C h=4.2% p=-1.0hPa 404.000 MHz Type=RS41-NG ser=U3035079 Radiosonde auto_rx v1.5.5
N0GRP-1U30350792022-12-06 23:55:5939.2707-94.46817519114783Clb=6.1m/s t=-64.6C h=4.2% p=-1.0hPa 404.001 MHz Type=RS41-NG Radiosonde
KD0ZJV-10U30350792022-12-06 23:55:2239.2679-94.48227519814667Clb=4.3m/s t=-64.7C h=4.4% p=-1.0hPa 404.000 MHz Type=RS41-NG Radiosonde
KC0BQBU30350792022-12-06 23:55:1339.2673-94.48537919614642Clb=4.5m/s t=-64.6C h=4.4% p=-1.0hPa 404.000 MHz Type=RS41-NG ser=U3035079 Radiosonde auto_rx v1.5.5
N0GRP-1U30350792022-12-06 23:55:0939.2671-94.48657518314631Clb=4.6m/s t=-64.6C h=4.5% p=-1.0hPa 404.001 MHz Type=RS41-NG Radiosonde
KD0ZJV-10U30350792022-12-06 23:54:3439.2646-94.50057820614513Clb=5.3m/s t=-63.9C h=4.4% p=-1.0hPa 404.000 MHz Type=RS41-NG Radiosonde
KC0BQBU30350792022-12-06 23:54:2739.2639-94.50377620414488Clb=5.7m/s t=-63.8C h=4.4% p=-1.0hPa 404.000 MHz Type=RS41-NG ser=U3035079 Radiosonde auto_rx v1.5.5
N0GRP-1U30350792022-12-06 23:54:2039.2636-94.50567619614470Clb=5.5m/s t=-63.8C h=4.6% p=-1.0hPa 404.001 MHz Type=RS41-NG Radiosonde
KD0ZJV-10U30350792022-12-06 23:53:4539.2605-94.52017120214341Clb=6.0m/s t=-63.4C h=4.8% p=-1.0hPa 404.000 MHz Type=RS41-NG Radiosonde
KC0BQBU30350792022-12-06 23:53:3939.2598-94.52337719614316Clb=7.2m/s t=-63.2C h=4.5% p=-1.0hPa 404.000 MHz Type=RS41-NG ser=U3035079 Radiosonde auto_rx v1.5.5
N0GRP-1U30350792022-12-06 23:53:3139.2593-94.52577420414293Clb=4.5m/s t=-63.0C h=4.6% p=-1.0hPa 404.001 MHz Type=RS41-NG Radiosonde
KD0ZJV-10U30350792022-12-06 23:52:5439.2567-94.53987821514174Clb=7.5m/s t=-62.9C h=4.9% p=-1.0hPa 404.000 MHz Type=RS41-NG Radiosonde
KC0BQBU30350792022-12-06 23:52:5039.2562-94.54247320214153Clb=5.7m/s t=-62.8C h=5.0% p=-1.0hPa 404.000 MHz Type=RS41-NG ser=U3035079 Radiosonde auto_rx v1.5.5
N0GRP-1U30350792022-12-06 23:52:4039.2557-94.5457421314131Clb=6.6m/s t=-62.6C h=5.0% p=-1.0hPa 404.001 MHz Type=RS41-NG Radiosonde
KD0ZJV-10U30350792022-12-06 23:52:0139.2525-94.56017220214010Clb=4.7m/s t=-62.0C h=4.9% p=-1.0hPa 404.000 MHz Type=RS41-NG Radiosonde
KC0BQBU30350792022-12-06 23:52:0039.2514-94.56477520713977Clb=3.2m/s t=-61.9C h=5.1% p=-1.0hPa 404.000 MHz Type=RS41-NG ser=U3035079 Radiosonde auto_rx v1.5.5
N0GRP-1U30350792022-12-06 23:51:5339.2513-94.56547421513972Clb=5.8m/s t=-61.8C h=5.1% p=-1.0hPa 404.001 MHz Type=RS41-NG Radiosonde
KD0ZJV-10U30350792022-12-06 23:51:3039.2471-94.58147020713852Clb=4.4m/s t=-61.6C h=5.4% p=-1.0hPa 404.000 MHz Type=RS41-NG Radiosonde
N0GRP-1U30350792022-12-06 23:51:2739.2458-94.58617021913818Clb=4.0m/s t=-61.7C h=5.4% p=-1.0hPa 404.001 MHz Type=RS41-NG Radiosonde
KD0ZJV-10U30350792022-12-06 23:51:2039.2418-94.60176821113696Clb=3.3m/s t=-62.1C h=5.7% p=-1.0hPa 404.000 MHz Type=RS41-NG Radiosonde
N0GRP-1U30350792022-12-06 23:51:1439.2407-94.60627020213660Clb=4.4m/s t=-62.0C h=5.5% p=-1.0hPa 404.001 MHz Type=RS41-NG Radiosonde
KC0BQBU30350792022-12-06 23:51:0039.2374-94.62057420013547Clb=3.8m/s t=-61.7C h=6.0% p=-1.0hPa 404.000 MHz Type=RS41-NG ser=U3035079 Radiosonde auto_rx v1.5.5
KD0ZJV-10U30350792022-12-06 23:50:5839.2371-94.62187920413537Clb=4.4m/s t=-61.7C h=6.0% p=-1.0hPa 404.000 MHz Type=RS41-NG Radiosonde
N0GRP-1U30350792022-12-06 23:50:5639.2361-94.62717720213494Clb=3.7m/s t=-61.7C h=6.1% p=-1.0hPa 404.001 MHz Type=RS41-NG Radiosonde
KC0BQBU30350792022-12-06 23:50:5539.2332-94.64327420413367Clb=6.7m/s t=-61.9C h=7.0% p=-1.0hPa 404.000 MHz Type=RS41-NG ser=U3035079 Radiosonde auto_rx v1.5.5
KC0BQBU30350792022-12-06 23:50:5439.2301-94.65957620613243Clb=4.5m/s t=-62.0C h=8.0% p=-1.0hPa 404.000 MHz Type=RS41-NG ser=U3035079 Radiosonde auto_rx v1.5.5
N0GRP-1U30350792022-12-06 23:50:5339.2286-94.66727620713189Clb=4.0m/s t=-62.1C h=8.4% p=-1.0hPa 404.001 MHz Type=RS41-NG Radiosonde
KC0BQBU30350792022-12-06 23:50:5239.2265-94.67938022213088Clb=3.7m/s t=-62.7C h=9.3% p=-1.0hPa 404.000 MHz Type=RS41-NG ser=U3035079 Radiosonde auto_rx v1.5.5
KC0BQBU30350792022-12-06 23:50:4639.2235-94.70018122812933Clb=5.9m/s t=-62.0C h=10.9% p=-1.0hPa 404.000 MHz Type=RS41-NG ser=U3035079 Radiosonde auto_rx v1.5.5
KD0ZJV-10U30350792022-12-06 23:50:4039.2229-94.70437721712904Clb=5.5m/s t=-61.7C h=11.3% p=-1.0hPa 404.000 MHz Type=RS41-NG Radiosonde
N0GRP-1U30350792022-12-06 23:50:3339.2221-94.717722412856Clb=7.1m/s t=-61.5C h=11.4% p=-1.0hPa 404.001 MHz Type=RS41-NG Radiosonde
KC0BQBU30350792022-12-06 23:50:1039.2202-94.72167823512777Clb=3.4m/s t=-62.0C h=13.8% p=-1.0hPa 404.000 MHz Type=RS41-NG ser=U3035079 Radiosonde auto_rx v1.5.5
KD0ZJV-10U30350792022-12-06 23:49:5839.2194-94.72687724112743Clb=4.8m/s t=-62.1C h=14.2% p=-1.0hPa 404.000 MHz Type=RS41-NG Radiosonde
N0GRP-1U30350792022-12-06 23:49:4639.2185-94.73287923512707Clb=3.1m/s t=-62.1C h=15.2% p=-1.0hPa 404.001 MHz Type=RS41-NG Radiosonde
KC0BQBU30350792022-12-06 23:49:2339.2167-94.74397523912634Clb=5.1m/s t=-61.9C h=17.2% p=-1.0hPa 404.000 MHz Type=RS41-NG ser=U3035079 Radiosonde auto_rx v1.5.5
KD0ZJV-10U30350792022-12-06 23:49:1039.2157-94.74997722812599Clb=6.0m/s t=-62.1C h=18.2% p=-1.0hPa 404.000 MHz Type=RS41-NG Radiosonde
N0GRP-1U30350792022-12-06 23:48:5739.2147-94.75667623912552Clb=6.3m/s t=-62.2C h=19.8% p=-1.0hPa 404.001 MHz Type=RS41-NG Radiosonde
KC0BQBU30350792022-12-06 23:48:3639.2131-94.76627724812491Clb=5.0m/s t=-62.1C h=21.7% p=-1.0hPa 404.000 MHz Type=RS41-NG ser=U3035079 Radiosonde auto_rx v1.5.5
KD0ZJV-10U30350792022-12-06 23:48:2239.212-94.77297923512443Clb=5.7m/s t=-62.4C h=24.4% p=-1.0hPa 404.000 MHz Type=RS41-NG Radiosonde
N0GRP-1U30350792022-12-06 23:48:0939.2108-94.77948022612400Clb=5.8m/s t=-62.8C h=26.1% p=-1.0hPa 404.001 MHz Type=RS41-NG Radiosonde
KC0BQBU30350792022-12-06 23:47:5539.2094-94.78838023712340Clb=3.5m/s t=-62.9C h=27.3% p=-1.0hPa 404.000 MHz Type=RS41-NG ser=U3035079 Radiosonde auto_rx v1.5.5
KD0ZJV-10U30350792022-12-06 23:47:4039.2083-94.79598023712287Clb=5.9m/s t=-62.6C h=28.5% p=-1.0hPa 404.000 MHz Type=RS41-NG Radiosonde
N0GRP-1U30350792022-12-06 23:47:2639.2074-94.8028125012244Clb=6.5m/s t=-62.4C h=29.5% p=-1.0hPa 404.001 MHz Type=RS41-NG Radiosonde
KC0BQBU30350792022-12-06 23:47:0639.2063-94.81147924612180Clb=4.5m/s t=-62.2C h=31.0% p=-1.0hPa 404.000 MHz Type=RS41-NG ser=U3035079 Radiosonde auto_rx v1.5.5
KD0ZJV-10U30350792022-12-06 23:46:4739.205-94.82017824812123Clb=7.1m/s t=-61.8C h=29.1% p=-1.0hPa 404.000 MHz Type=RS41-NG Radiosonde
N0GRP-1U30350792022-12-06 23:46:3439.204-94.82718024612077Clb=4.0m/s t=-61.4C h=29.4% p=-1.0hPa 404.001 MHz Type=RS41-NG Radiosonde
KC0BQBU30350792022-12-06 23:46:1739.2029-94.8357924412025Clb=4.5m/s t=-61.1C h=29.7% p=-1.0hPa 404.000 MHz Type=RS41-NG ser=U3035079 Radiosonde auto_rx v1.5.5
KD0ZJV-10U30350792022-12-06 23:45:5739.2014-94.84437825411965Clb=5.5m/s t=-60.7C h=28.3% p=-1.0hPa 404.000 MHz Type=RS41-NG Radiosonde
N0GRP-1U30350792022-12-06 23:45:4439.2001-94.85287624411912Clb=5.5m/s t=-60.6C h=28.9% p=-1.0hPa 404.001 MHz Type=RS41-NG Radiosonde
KC0BQBU30350792022-12-06 23:45:3139.1992-94.85838025411876Clb=5.1m/s t=-60.5C h=28.3% p=-1.0hPa 404.000 MHz Type=RS41-NG ser=U3035079 Radiosonde auto_rx v1.5.5
KD0ZJV-10U30350792022-12-06 23:45:0939.1977-94.86877825711805Clb=5.7m/s t=-60.0C h=27.3% p=-1.0hPa 404.000 MHz Type=RS41-NG Radiosonde
N0GRP-1U30350792022-12-06 23:44:5639.1967-94.87497825911766Clb=3.7m/s t=-59.7C h=27.2% p=-1.0hPa 404.001 MHz Type=RS41-NG Radiosonde
KC0BQBU30350792022-12-06 23:44:4439.1955-94.88217825611719Clb=3.3m/s t=-59.4C h=26.5% p=-1.0hPa 404.000 MHz Type=RS41-NG ser=U3035079 Radiosonde auto_rx v1.5.5
KD0ZJV-10U30350792022-12-06 23:44:2139.1938-94.89327725011642Clb=5.4m/s t=-58.8C h=24.7% p=-1.0hPa 404.000 MHz Type=RS41-NG Radiosonde
N0GRP-1U30350792022-12-06 23:44:0939.1924-94.90187924411582Clb=3.9m/s t=-58.4C h=23.6% p=-1.0hPa 404.001 MHz Type=RS41-NG Radiosonde
KC0BQBU30350792022-12-06 23:44:0039.1917-94.90587925411556Clb=4.4m/s t=-58.2C h=23.2% p=-1.0hPa 404.000 MHz Type=RS41-NG ser=U3035079 Radiosonde auto_rx v1.5.5
KD0ZJV-10U30350792022-12-06 23:43:4439.1897-94.91757824111480Clb=2.3m/s t=-57.6C h=23.1% p=-1.0hPa 404.000 MHz Type=RS41-NG Radiosonde
N0GRP-1U30350792022-12-06 23:43:3639.1883-94.92627825611421Clb=6.6m/s t=-57.2C h=22.4% p=-1.0hPa 404.001 MHz Type=RS41-NG Radiosonde
KC0BQBU30350792022-12-06 23:43:3139.1877-94.92937425011398Clb=6.1m/s t=-57.1C h=22.3% p=-1.0hPa 404.000 MHz Type=RS41-NG ser=U3035079 Radiosonde auto_rx v1.5.5
KD0ZJV-10U30350792022-12-06 23:43:2739.1858-94.94258224411306Clb=5.7m/s t=-56.4C h=21.1% p=-1.0hPa 404.000 MHz Type=RS41-NG Radiosonde
N0GRP-1U30350792022-12-06 23:43:2439.1847-94.94878023311270Clb=6.5m/s t=-56.2C h=21.5% p=-1.0hPa 404.001 MHz Type=RS41-NG Radiosonde
KC0BQBU30350792022-12-06 23:43:1939.1841-94.95267624411246Clb=4.0m/s t=-56.0C h=21.4% p=-1.0hPa 404.000 MHz Type=RS41-NG ser=U3035079 Radiosonde auto_rx v1.5.5
KD0ZJV-10U30350792022-12-06 23:43:0339.182-94.96627723211160Clb=4.7m/s t=-55.5C h=20.7% p=-1.0hPa 404.000 MHz Type=RS41-NG Radiosonde
N0GRP-1U30350792022-12-06 23:43:0139.1811-94.97248124111122Clb=4.5m/s t=-55.2C h=20.6% p=-1.0hPa 404.001 MHz Type=RS41-NG Radiosonde
KC0BQBU30350792022-12-06 23:43:0039.1806-94.97547723911103Clb=5.1m/s t=-55.1C h=20.3% p=-1.0hPa 404.000 MHz Type=RS41-NG ser=U3035079 Radiosonde auto_rx v1.5.5
KD0ZJV-10U30350792022-12-06 23:42:5939.1782-94.98997923511012Clb=5.8m/s t=-54.4C h=18.7% p=-1.0hPa 404.001 MHz Type=RS41-NG Radiosonde
N0GRP-1U30350792022-12-06 23:42:5839.177-94.99677923710968Clb=5.8m/s t=-54.0C h=18.3% p=-1.0hPa 404.001 MHz Type=RS41-NG Radiosonde
KC0BQBU30350792022-12-06 23:42:5639.1768-94.99827924810960Clb=3.8m/s t=-54.0C h=18.4% p=-1.0hPa 404.000 MHz Type=RS41-NG ser=U3035079 Radiosonde auto_rx v1.5.5
KD0ZJV-10U30350792022-12-06 23:42:2939.1742-95.01367824610864Clb=4.2m/s t=-53.4C h=18.3% p=-1.0hPa 404.001 MHz Type=RS41-NG Radiosonde
N0GRP-1U30350792022-12-06 23:42:1639.1731-95.01987524310821Clb=5.5m/s t=-53.1C h=17.3% p=-1.0hPa 404.001 MHz Type=RS41-NG Radiosonde
KC0BQBU30350792022-12-06 23:42:1439.1728-95.02137824310811Clb=3.8m/s t=-53.0C h=17.4% p=-1.0hPa 404.000 MHz Type=RS41-NG ser=U3035079 Radiosonde auto_rx v1.5.5
KD0ZJV-10U30350792022-12-06 23:41:4139.1699-95.03737524310700Clb=5.6m/s t=-52.4C h=18.1% p=-1.0hPa 404.001 MHz Type=RS41-NG Radiosonde
N0GRP-1U30350792022-12-06 23:41:2939.1687-95.0447423910651Clb=5.5m/s t=-52.1C h=18.2% p=-1.0hPa 404.001 MHz Type=RS41-NG Radiosonde
KC0BQBU30350792022-12-06 23:41:2839.1687-95.0447423910651Clb=5.5m/s t=-52.1C h=18.2% p=-1.0hPa 404.000 MHz Type=RS41-NG ser=U3035079 Radiosonde auto_rx v1.5.5
KD0ZJV-10U30350792022-12-06 23:40:5439.1653-95.06097623710537Clb=5.8m/s t=-51.2C h=17.1% p=-1.0hPa 404.001 MHz Type=RS41-NG Radiosonde
KC0BQBU30350792022-12-06 23:40:4339.1643-95.0667423710502Clb=3.2m/s t=-50.9C h=16.9% p=-1.0hPa 404.000 MHz Type=RS41-NG ser=U3035079 Radiosonde auto_rx v1.5.5
N0GRP-1U30350792022-12-06 23:40:4239.1642-95.06677623510497Clb=5.5m/s t=-50.9C h=16.6% p=-1.0hPa 404.001 MHz Type=RS41-NG Radiosonde
KD0ZJV-10U30350792022-12-06 23:40:0939.1612-95.08297524410391Clb=5.4m/s t=-50.0C h=16.6% p=-1.0hPa 404.001 MHz Type=RS41-NG Radiosonde
KC0BQBU30350792022-12-06 23:40:0039.1602-95.08817523910355Clb=5.8m/s t=-49.8C h=16.4% p=-1.0hPa 404.000 MHz Type=RS41-NG ser=U3035079 Radiosonde auto_rx v1.5.5
N0GRP-1U30350792022-12-06 23:39:5839.16-95.08887422810349Clb=6.1m/s t=-49.7C h=16.2% p=-1.0hPa 404.001 MHz Type=RS41-NG Radiosonde
KD0ZJV-10U30350792022-12-06 23:39:3639.1563-95.10617023510230Clb=3.7m/s t=-48.7C h=15.7% p=-1.0hPa 404.001 MHz Type=RS41-NG Radiosonde
KC0BQBU30350792022-12-06 23:39:3039.1554-95.11047521910201Clb=5.6m/s t=-48.5C h=15.3% p=-1.0hPa 404.000 MHz Type=RS41-NG ser=U3035079 Radiosonde auto_rx v1.5.5
N0GRP-1U30350792022-12-06 23:39:2739.1551-95.11187522810191Clb=5.1m/s t=-48.4C h=15.3% p=-1.0hPa 404.001 MHz Type=RS41-NG Radiosonde
KD0ZJV-10U30350792022-12-06 23:39:0539.1515-95.12747023010078Clb=5.9m/s t=-47.4C h=15.8% p=-1.0hPa 404.001 MHz Type=RS41-NG Radiosonde
KC0BQBU30350792022-12-06 23:39:0139.1507-95.13097823210053Clb=5.7m/s t=-47.2C h=15.4% p=-1.0hPa 404.000 MHz Type=RS41-NG ser=U3035079 Radiosonde auto_rx v1.5.5
N0GRP-1U30350792022-12-06 23:38:5639.1502-95.13317123310036Clb=5.6m/s t=-47.1C h=15.3% p=-1.0hPa 404.001 MHz Type=RS41-NG Radiosonde
KD0ZJV-10U30350792022-12-06 23:38:3339.1467-95.1491712119915Clb=6.6m/s t=-46.5C h=13.4% p=-1.0hPa 404.001 MHz Type=RS41-NG Radiosonde
KC0BQBU30350792022-12-06 23:38:3039.146-95.1518712289894Clb=5.4m/s t=-46.5C h=13.2% p=-1.0hPa 404.000 MHz Type=RS41-NG ser=U3035079 Radiosonde auto_rx v1.5.5
N0GRP-1U30350792022-12-06 23:38:2539.1452-95.1553742199870Clb=3.7m/s t=-46.4C h=13.3% p=-1.0hPa 404.001 MHz Type=RS41-NG Radiosonde
KD0ZJV-10U30350792022-12-06 23:38:1539.1421-95.1704762229767Clb=5.7m/s t=-45.7C h=14.7% p=-1.0hPa 404.001 MHz Type=RS41-NG Radiosonde
N0GRP-1U30350792022-12-06 23:38:1439.141-95.1759712049717Clb=6.2m/s t=-45.5C h=17.7% p=-1.0hPa 404.001 MHz Type=RS41-NG Radiosonde
KD0ZJV-10U30350792022-12-06 23:38:0939.138-95.1914752359587Clb=7.8m/s t=-44.8C h=51.7% p=-1.0hPa 404.001 MHz Type=RS41-NG Radiosonde
KC0BQBU30350792022-12-06 23:38:0739.1377-95.1928732209574Clb=3.8m/s t=-44.7C h=57.3% p=-1.0hPa 404.000 MHz Type=RS41-NG ser=U3035079 Radiosonde auto_rx v1.5.5
N0GRP-1U30350792022-12-06 23:38:0039.1367-95.1971722269548Clb=5.9m/s t=-44.6C h=62.1% p=-1.0hPa 404.001 MHz Type=RS41-NG Radiosonde
KC0BQBU30350792022-12-06 23:37:2539.1334-95.214762069397Clb=7.5m/s t=-43.6C h=52.0% p=-1.0hPa 404.000 MHz Type=RS41-NG ser=U3035079 Radiosonde auto_rx v1.5.5
N0GRP-1U30350792022-12-06 23:37:1339.1322-95.2189792339356Clb=8.0m/s t=-43.2C h=48.6% p=-1.0hPa 404.001 MHz Type=RS41-NG Radiosonde
KC0BQBU30350792022-12-06 23:36:4039.129-95.2345692329191Clb=4.5m/s t=-42.3C h=54.7% p=-1.0hPa 404.000 MHz Type=RS41-NG ser=U3035079 Radiosonde auto_rx v1.5.5
KD0ZJV-10U30350792022-12-06 23:36:3939.1288-95.2352702159186Clb=5.8m/s t=-42.4C h=58.6% p=-1.0hPa 404.001 MHz Type=RS41-NG Radiosonde
N0GRP-1U30350792022-12-06 23:36:2639.1281-95.2397722119133Clb=6.9m/s t=-42.6C h=74.4% p=-1.0hPa 404.001 MHz Type=RS41-NG Radiosonde
KC0BQBU30350792022-12-06 23:36:0039.1261-95.2549752159000Clb=5.5m/s t=-41.6C h=73.4% p=-1.0hPa 404.000 MHz Type=RS41-NG ser=U3035079 Radiosonde auto_rx v1.5.5
KD0ZJV-10U30350792022-12-06 23:35:5839.1258-95.2574831988975Clb=8.6m/s t=-41.4C h=72.5% p=-1.0hPa 404.001 MHz Type=RS41-NG Radiosonde
N0GRP-1U30350792022-12-06 23:35:5039.1254-95.2616871968931Clb=8.8m/s t=-273.0C h=-1.0% p=-1.0hPa 404.001 MHz Type=RS41-NG Radiosonde
KC0BQBU30350792022-12-06 23:35:3039.1238-95.2742732048791Clb=7.0m/s t=-39.8C h=71.9% p=-1.0hPa 404.000 MHz Type=RS41-NG ser=U3035079 Radiosonde auto_rx v1.5.5
KD0ZJV-10U30350792022-12-06 23:35:2739.1234-95.2776841838764Clb=4.7m/s t=-39.6C h=73.8% p=-1.0hPa 404.001 MHz Type=RS41-NG Radiosonde
N0GRP-1U30350792022-12-06 23:35:1939.1228-95.2814852098727Clb=6.2m/s t=-273.0C h=-1.0% p=-1.0hPa 404.001 MHz Type=RS41-NG Radiosonde
KC0BQBU30350792022-12-06 23:35:0039.1212-95.2949762028577Clb=5.8m/s t=-38.4C h=80.0% p=-1.0hPa 404.000 MHz Type=RS41-NG ser=U3035079 Radiosonde auto_rx v1.5.5
KD0ZJV-10U30350792022-12-06 23:34:5639.121-95.2962842138565Clb=6.7m/s t=-38.3C h=77.6% p=-1.0hPa 404.001 MHz Type=RS41-NG Radiosonde
N0GRP-1U30350792022-12-06 23:34:4839.1205-95.3007841788521Clb=7.1m/s t=-273.0C h=-1.0% p=-1.0hPa 404.001 MHz Type=RS41-NG Radiosonde
KC0BQBU30350792022-12-06 23:34:3039.119-95.3117772048389Clb=5.4m/s t=-37.2C h=71.1% p=-1.0hPa 404.000 MHz Type=RS41-NG ser=U3035079 Radiosonde auto_rx v1.5.5
KD0ZJV-10U30350792022-12-06 23:34:2539.1187-95.3149831698362Clb=5.8m/s t=-36.9C h=70.6% p=-1.0hPa 404.001 MHz Type=RS41-NG Radiosonde
N0GRP-1U30350792022-12-06 23:34:1739.1179-95.3206791968290Clb=8.8m/s t=-273.0C h=-1.0% p=-1.0hPa 404.001 MHz Type=RS41-NG Radiosonde
KC0BQBU30350792022-12-06 23:34:0039.1168-95.3291831918186Clb=7.3m/s t=-35.7C h=66.7% p=-1.0hPa 404.000 MHz Type=RS41-NG ser=U3035079 Radiosonde auto_rx v1.5.5
KD0ZJV-10U30350792022-12-06 23:33:5439.1164-95.3324751878148Clb=6.6m/s t=-35.5C h=66.6% p=-1.0hPa 404.001 MHz Type=RS41-NG Radiosonde
N0GRP-1U30350792022-12-06 23:33:4939.1158-95.3366831878092Clb=7.5m/s t=-273.0C h=-1.0% p=-1.0hPa 404.001 MHz Type=RS41 Radiosonde
KD0ZJV-10U30350792022-12-06 23:33:4639.1142-95.3499821597927Clb=8.6m/s t=-33.8C h=74.9% p=-1.0hPa 404.001 MHz Type=RS41-NG Radiosonde
KC0BQBU30350792022-12-06 23:33:2039.1125-95.361851657781Clb=7.4m/s t=-32.8C h=74.8% p=-1.0hPa 404.000 MHz Type=RS41-NG ser=U3035079 Radiosonde auto_rx v1.5.5
KD0ZJV-10U30350792022-12-06 23:33:1039.1119-95.3646821637738Clb=6.5m/s t=-32.4C h=72.9% p=-1.0hPa 404.001 MHz Type=RS41-NG Radiosonde
KC0BQBU30350792022-12-06 23:32:3939.1102-95.3757731377587Clb=6.1m/s t=-31.5C h=69.7% p=-1.0hPa 404.000 MHz Type=RS41-NG ser=U3035079 Radiosonde auto_rx v1.5.5
KD0ZJV-10U30350792022-12-06 23:32:2739.1094-95.3799771747527Clb=6.7m/s t=-31.0C h=69.5% p=-1.0hPa 404.001 MHz Type=RS41-NG Radiosonde
KC0BQBU30350792022-12-06 23:32:0039.1075-95.3897771577386Clb=7.4m/s t=-30.0C h=76.1% p=-1.0hPa 404.000 MHz Type=RS41-NG ser=U3035079 Radiosonde auto_rx v1.5.5
KD0ZJV-10U30350792022-12-06 23:31:5039.1066-95.3941641397316Clb=7.2m/s t=-29.4C h=76.6% p=-1.0hPa 404.001 MHz Type=RS41-NG Radiosonde
KC0BQBU30350792022-12-06 23:31:3039.1044-95.4028631357183Clb=7.8m/s t=-28.2C h=72.9% p=-1.0hPa 404.000 MHz Type=RS41-NG ser=U3035079 Radiosonde auto_rx v1.5.5
KD0ZJV-10U30350792022-12-06 23:31:1939.1032-95.4076781247111Clb=7.7m/s t=-27.8C h=79.9% p=-1.0hPa 404.001 MHz Type=RS41-NG Radiosonde
KC0BQBU30350792022-12-06 23:31:0039.1012-95.4155771526993Clb=5.8m/s t=-27.3C h=77.5% p=-1.0hPa 404.000 MHz Type=RS41-NG ser=U3035079 Radiosonde auto_rx v1.5.5
KD0ZJV-10U30350792022-12-06 23:30:4739.1-95.4203671206912Clb=4.9m/s t=-26.8C h=81.7% p=-1.0hPa 404.001 MHz Type=RS41-NG Radiosonde
KC0BQBU30350792022-12-06 23:30:3039.0977-95.4273741436792Clb=6.6m/s t=-26.1C h=87.0% p=-1.0hPa 404.000 MHz Type=RS41-NG ser=U3035079 Radiosonde auto_rx v1.5.5
KD0ZJV-10U30350792022-12-06 23:30:1639.0962-95.4323681506710Clb=6.7m/s t=-25.8C h=93.6% p=-1.0hPa 404.001 MHz Type=RS41-NG Radiosonde
KC0BQBU30350792022-12-06 23:30:0039.0944-95.4389671096596Clb=8.2m/s t=-24.9C h=89.8% p=-1.0hPa 404.000 MHz Type=RS41-NG ser=U3035079 Radiosonde auto_rx v1.5.5
KD0ZJV-10U30350792022-12-06 23:29:4539.093-95.4442651156501Clb=5.2m/s t=-24.3C h=99.1% p=-1.0hPa 404.001 MHz Type=RS41-NG Radiosonde
KC0BQBU30350792022-12-06 23:29:3039.0913-95.4503711196391Clb=9.7m/s t=-23.4C h=96.4% p=-1.0hPa 404.000 MHz Type=RS41-NG ser=U3035079 Radiosonde auto_rx v1.5.5
KD0ZJV-10U30350792022-12-06 23:29:2239.0897-95.456741436288Clb=6.2m/s t=-22.5C h=86.9% p=-1.0hPa 404.001 MHz Type=RS41-NG Radiosonde
KC0BQBU30350792022-12-06 23:29:1239.0883-95.4617701096187Clb=8.3m/s t=-21.7C h=80.6% p=-1.0hPa 404.000 MHz Type=RS41-NG ser=U3035079 Radiosonde auto_rx v1.5.5
KD0ZJV-10U30350792022-12-06 23:28:5139.0866-95.4677761306079Clb=6.0m/s t=-20.8C h=73.0% p=-1.0hPa 404.001 MHz Type=RS41-NG Radiosonde
KC0BQBU30350792022-12-06 23:28:3639.0853-95.473741075989Clb=6.6m/s t=-20.1C h=62.9% p=-1.0hPa 404.000 MHz Type=RS41-NG ser=U3035079 Radiosonde auto_rx v1.5.5
KD0ZJV-10U30350792022-12-06 23:28:1339.0838-95.4795821175879Clb=6.9m/s t=-19.1C h=51.4% p=-1.0hPa 404.001 MHz Type=RS41-NG Radiosonde
KC0BQBU30350792022-12-06 23:28:0039.0828-95.4843791075794Clb=6.6m/s t=-18.4C h=44.3% p=-1.0hPa 404.000 MHz Type=RS41-NG ser=U3035079 Radiosonde auto_rx v1.5.5
KD0ZJV-10U30350792022-12-06 23:27:4139.0814-95.491821245680Clb=6.0m/s t=-17.5C h=30.8% p=-1.0hPa 404.001 MHz Type=RS41-NG Radiosonde
KC0BQBU30350792022-12-06 23:27:3039.0806-95.4951821305604Clb=7.2m/s t=-16.8C h=-1.0% p=-1.0hPa 404.000 MHz Type=RS41-NG ser=U3035079 Radiosonde auto_rx v1.5.5
KD0ZJV-10U30350792022-12-06 23:27:1139.0795-95.5016711045488Clb=8.2m/s t=-15.8C h=32.6% p=-1.0hPa 404.001 MHz Type=RS41-NG Radiosonde
KC0BQBU30350792022-12-06 23:27:0039.0789-95.5057761245422Clb=6.2m/s t=-15.2C h=-1.0% p=-1.0hPa 404.000 MHz Type=RS41-NG ser=U3035079 Radiosonde auto_rx v1.5.5
KD0ZJV-10U30350792022-12-06 23:26:3939.0778-95.512890985295Clb=6.1m/s t=-14.1C h=27.8% p=-1.0hPa 404.001 MHz Type=RS41-NG Radiosonde
KC0BQBU30350792022-12-06 23:26:3039.0773-95.5162751205231Clb=7.0m/s t=-13.6C h=-1.0% p=-1.0hPa 404.000 MHz Type=RS41-NG ser=U3035079 Radiosonde auto_rx v1.5.5
KD0ZJV-10U30350792022-12-06 23:26:0839.0765-95.52386985101Clb=5.0m/s t=-12.6C h=21.5% p=-1.0hPa 404.001 MHz Type=RS41-NG Radiosonde
KC0BQBU30350792022-12-06 23:26:0039.0761-95.525891935052Clb=4.6m/s t=-12.3C h=-1.0% p=-1.0hPa 404.000 MHz Type=RS41-NG ser=U3035079 Radiosonde auto_rx v1.5.5
KD0ZJV-10U30350792022-12-06 23:25:3739.0755-95.533577944908Clb=6.3m/s t=-11.1C h=21.0% p=-1.0hPa 404.001 MHz Type=RS41-NG Radiosonde
KC0BQBU30350792022-12-06 23:25:3039.0752-95.535772984859Clb=5.3m/s t=-273.0C h=-1.0% p=-1.0hPa 404.000 MHz Type=RS41-NG ser=U3035079 Radiosonde auto_rx v1.5.5
KD0ZJV-10U30350792022-12-06 23:25:1239.0742-95.5433701044703Clb=6.3m/s t=-9.6C h=21.4% p=-1.0hPa 404.001 MHz Type=RS41-NG Radiosonde
KD0ZJV-10U30350792022-12-06 23:24:4039.0727-95.552670964506Clb=6.6m/s t=-8.6C h=11.4% p=-1.0hPa 404.001 MHz Type=RS41-NG Radiosonde
KD0ZJV-10U30350792022-12-06 23:24:0439.0707-95.561279784311Clb=4.6m/s t=-7.9C h=17.6% p=-1.0hPa 404.001 MHz Type=RS41-NG Radiosonde
KD0ZJV-10U30350792022-12-06 23:23:3239.069-95.569882914114Clb=6.0m/s t=-6.8C h=25.2% p=-1.0hPa 404.001 MHz Type=RS41-NG Radiosonde
KD0ZJV-10U30350792022-12-06 23:23:0139.0671-95.577884783919Clb=4.5m/s t=-5.2C h=27.6% p=-1.0hPa 404.001 MHz Type=RS41-NG Radiosonde
KD0ZJV-10U30350792022-12-06 23:22:3039.0652-95.585773653728Clb=6.0m/s t=-4.9C h=41.7% p=-1.0hPa 404.001 MHz Type=RS41-NG Radiosonde
KD0ZJV-10U30350792022-12-06 23:21:5939.0644-95.592686803525Clb=5.4m/s t=-3.7C h=35.8% p=-1.0hPa 404.001 MHz Type=RS41-NG Radiosonde
KD0ZJV-10U30350792022-12-06 23:21:2839.0645-95.598986743331Clb=4.8m/s t=-2.1C h=28.2% p=-1.0hPa 404.001 MHz Type=RS41-NG Radiosonde
KD0ZJV-10U30350792022-12-06 23:20:5739.065-95.6045115503121Clb=5.3m/s t=-1.1C h=31.9% p=-1.0hPa 404.001 MHz Type=RS41-NG Radiosonde
KD0ZJV-10U30350792022-12-06 23:20:2739.0652-95.608490302945Clb=5.8m/s t=0.4C h=31.1% p=-1.0hPa 404.001 MHz Type=RS41-NG Radiosonde
KD0ZJV-10U30350792022-12-06 23:19:5539.0653-95.6127103522756Clb=4.4m/s t=1.7C h=30.0% p=-1.0hPa 404.001 MHz Type=RS41-NG Radiosonde
KD0ZJV-10U30350792022-12-06 23:19:2439.0658-95.6166117352554Clb=5.8m/s t=3.1C h=27.5% p=-1.0hPa 404.001 MHz Type=RS41-NG Radiosonde
KD0ZJV-10U30350792022-12-06 23:18:5339.0656-95.619766172361Clb=6.2m/s t=4.8C h=22.9% p=-1.0hPa 404.001 MHz Type=RS41-NG Radiosonde
KD0ZJV-10U30350792022-12-06 23:18:2239.0655-95.622479392196Clb=6.0m/s t=5.3C h=33.5% p=-1.0hPa 404.001 MHz Type=RS41-NG Radiosonde
KD0ZJV-10U30350792022-12-06 23:17:5139.0655-95.624993172029Clb=6.7m/s t=5.6C h=42.5% p=-1.0hPa 404.001 MHz Type=RS41-NG Radiosonde
KD0ZJV-10U30350792022-12-06 23:17:2039.0662-95.627494261852Clb=7.8m/s t=5.5C h=39.6% p=-1.0hPa 404.001 MHz Type=RS41-NG Radiosonde
KD0ZJV-10U30350792022-12-06 23:16:4939.0667-95.6291134221662Clb=5.9m/s t=4.5C h=50.2% p=-1.0hPa 404.001 MHz Type=RS41-NG Radiosonde
KD0ZJV-10U30350792022-12-06 23:16:1839.0678-95.629188241489Clb=4.2m/s t=-273.0C h=-1.0% p=-1.0hPa 404.001 MHz Type=RS41-NG Radiosonde
KD0ZJV-10U30350792022-12-06 23:15:4939.0687-95.6295196191330Clb=5.0m/s t=-273.0C h=-1.0% p=-1.0hPa 404.001 MHz Type=RS41 Radiosonde